<?xml version="1.0" encoding="UTF-8" standalone="no" ?>
<gpx xmlns="http://www.topografix.com/GPX/1/1" xmlns:xsi="http://www.w3.org/2001/XMLSchema-instance" xsi:schemaLocation="http://www.topografix.com/GPX/1/1 http://www.topografix.com/GPX/1/1/gpx.xsd" version="1.1" creator="VisuGPX - https://www.visugpx.com">
  <metadata>
    <name>Col des Aiguilles depuis le col du Festre</name>
    <desc><![CDATA[Une partie de la boucle de retour est hors sentier.]]></desc>
  </metadata>
  <trk>
    <name><![CDATA[11/08/21  Col des Aiguilles depuis le col du Festre]]></name>
    <extensions>
      <line xmlns="http://www.topografix.com/GPX/gpx_style/0/2">
        <color>0000FF</color>
        <width>4</width>
      </line>
    </extensions>
    <trkseg>
      <trkpt lat="44.66613" lon="5.8573">
        <ele>1426.4000244141</ele>
        <time>2021-08-11T06:58:07Z</time>
      </trkpt>
      <trkpt lat="44.66612" lon="5.8573">
        <ele>1426.8000488281</ele>
        <time>2021-08-11T06:58:39Z</time>
      </trkpt>
      <trkpt lat="44.6662" lon="5.85743">
        <ele>1427</ele>
        <time>2021-08-11T06:58:54Z</time>
      </trkpt>
      <trkpt lat="44.66629" lon="5.85748">
        <ele>1427</ele>
        <time>2021-08-11T06:59:02Z</time>
      </trkpt>
      <trkpt lat="44.66651" lon="5.85767">
        <ele>1426.5999755859</ele>
        <time>2021-08-11T06:59:21Z</time>
      </trkpt>
      <trkpt lat="44.66668" lon="5.85778">
        <ele>1426.5999755859</ele>
        <time>2021-08-11T06:59:35Z</time>
      </trkpt>
      <trkpt lat="44.66692" lon="5.85783">
        <ele>1427</ele>
        <time>2021-08-11T06:59:54Z</time>
      </trkpt>
      <trkpt lat="44.66719" lon="5.85791">
        <ele>1426.5999755859</ele>
        <time>2021-08-11T07:00:17Z</time>
      </trkpt>
      <trkpt lat="44.66722" lon="5.85791">
        <ele>1426.5999755859</ele>
        <time>2021-08-11T07:00:20Z</time>
      </trkpt>
      <trkpt lat="44.66724" lon="5.85784">
        <ele>1426.4000244141</ele>
        <time>2021-08-11T07:00:41Z</time>
      </trkpt>
      <trkpt lat="44.66724" lon="5.85783">
        <ele>1426.4000244141</ele>
        <time>2021-08-11T07:00:42Z</time>
      </trkpt>
      <trkpt lat="44.66719" lon="5.85762">
        <ele>1426.5999755859</ele>
        <time>2021-08-11T07:00:59Z</time>
      </trkpt>
      <trkpt lat="44.66714" lon="5.85745">
        <ele>1427</ele>
        <time>2021-08-11T07:01:11Z</time>
      </trkpt>
      <trkpt lat="44.66715" lon="5.85726">
        <ele>1427.1999511719</ele>
        <time>2021-08-11T07:01:24Z</time>
      </trkpt>
      <trkpt lat="44.6671" lon="5.85704">
        <ele>1428</ele>
        <time>2021-08-11T07:01:39Z</time>
      </trkpt>
      <trkpt lat="44.66705" lon="5.85678">
        <ele>1428.8000488281</ele>
        <time>2021-08-11T07:01:57Z</time>
      </trkpt>
      <trkpt lat="44.66699" lon="5.85661">
        <ele>1430</ele>
        <time>2021-08-11T07:02:13Z</time>
      </trkpt>
      <trkpt lat="44.66697" lon="5.85654">
        <ele>1430.5999755859</ele>
        <time>2021-08-11T07:02:25Z</time>
      </trkpt>
      <trkpt lat="44.66687" lon="5.85634">
        <ele>1431.4000244141</ele>
        <time>2021-08-11T07:02:46Z</time>
      </trkpt>
      <trkpt lat="44.66675" lon="5.85612">
        <ele>1432.4000244141</ele>
        <time>2021-08-11T07:03:09Z</time>
      </trkpt>
      <trkpt lat="44.66671" lon="5.85587">
        <ele>1434.1999511719</ele>
        <time>2021-08-11T07:03:30Z</time>
      </trkpt>
      <trkpt lat="44.66673" lon="5.8557">
        <ele>1435.8000488281</ele>
        <time>2021-08-11T07:03:44Z</time>
      </trkpt>
      <trkpt lat="44.66681" lon="5.85552">
        <ele>1436.8000488281</ele>
        <time>2021-08-11T07:04:03Z</time>
      </trkpt>
      <trkpt lat="44.66688" lon="5.85533">
        <ele>1438.4000244141</ele>
        <time>2021-08-11T07:04:22Z</time>
      </trkpt>
      <trkpt lat="44.66695" lon="5.8551">
        <ele>1440.1999511719</ele>
        <time>2021-08-11T07:04:41Z</time>
      </trkpt>
      <trkpt lat="44.667" lon="5.85484">
        <ele>1441.1999511719</ele>
        <time>2021-08-11T07:05:01Z</time>
      </trkpt>
      <trkpt lat="44.66702" lon="5.85458">
        <ele>1441.8000488281</ele>
        <time>2021-08-11T07:05:20Z</time>
      </trkpt>
      <trkpt lat="44.66704" lon="5.85442">
        <ele>1442.1999511719</ele>
        <time>2021-08-11T07:05:36Z</time>
      </trkpt>
      <trkpt lat="44.66706" lon="5.85402">
        <ele>1443.1999511719</ele>
        <time>2021-08-11T07:06:05Z</time>
      </trkpt>
      <trkpt lat="44.66708" lon="5.85378">
        <ele>1444.4000244141</ele>
        <time>2021-08-11T07:06:25Z</time>
      </trkpt>
      <trkpt lat="44.66708" lon="5.85369">
        <ele>1444.8000488281</ele>
        <time>2021-08-11T07:06:32Z</time>
      </trkpt>
      <trkpt lat="44.66708" lon="5.85364">
        <ele>1445</ele>
        <time>2021-08-11T07:06:37Z</time>
      </trkpt>
      <trkpt lat="44.66708" lon="5.85362">
        <ele>1445</ele>
        <time>2021-08-11T07:06:38Z</time>
      </trkpt>
      <trkpt lat="44.6671" lon="5.85344">
        <ele>1446.4000244141</ele>
        <time>2021-08-11T07:06:54Z</time>
      </trkpt>
      <trkpt lat="44.66713" lon="5.85322">
        <ele>1447.5999755859</ele>
        <time>2021-08-11T07:07:11Z</time>
      </trkpt>
      <trkpt lat="44.66716" lon="5.85301">
        <ele>1449.5999755859</ele>
        <time>2021-08-11T07:07:29Z</time>
      </trkpt>
      <trkpt lat="44.66723" lon="5.85278">
        <ele>1451.1999511719</ele>
        <time>2021-08-11T07:07:49Z</time>
      </trkpt>
      <trkpt lat="44.6673" lon="5.85253">
        <ele>1453.4000244141</ele>
        <time>2021-08-11T07:08:11Z</time>
      </trkpt>
      <trkpt lat="44.66738" lon="5.85235">
        <ele>1454.8000488281</ele>
        <time>2021-08-11T07:08:28Z</time>
      </trkpt>
      <trkpt lat="44.6675" lon="5.85214">
        <ele>1456.4000244141</ele>
        <time>2021-08-11T07:08:48Z</time>
      </trkpt>
      <trkpt lat="44.66762" lon="5.85196">
        <ele>1458</ele>
        <time>2021-08-11T07:09:07Z</time>
      </trkpt>
      <trkpt lat="44.66766" lon="5.85187">
        <ele>1458.5999755859</ele>
        <time>2021-08-11T07:09:15Z</time>
      </trkpt>
      <trkpt lat="44.66767" lon="5.85185">
        <ele>1458.5999755859</ele>
        <time>2021-08-11T07:09:17Z</time>
      </trkpt>
      <trkpt lat="44.66779" lon="5.85169">
        <ele>1460.5999755859</ele>
        <time>2021-08-11T07:09:35Z</time>
      </trkpt>
      <trkpt lat="44.66792" lon="5.85152">
        <ele>1462.5999755859</ele>
        <time>2021-08-11T07:09:55Z</time>
      </trkpt>
      <trkpt lat="44.66802" lon="5.85138">
        <ele>1464.4000244141</ele>
        <time>2021-08-11T07:10:12Z</time>
      </trkpt>
      <trkpt lat="44.66813" lon="5.85124">
        <ele>1466.4000244141</ele>
        <time>2021-08-11T07:10:31Z</time>
      </trkpt>
      <trkpt lat="44.66827" lon="5.85105">
        <ele>1468</ele>
        <time>2021-08-11T07:10:51Z</time>
      </trkpt>
      <trkpt lat="44.66837" lon="5.85087">
        <ele>1468.8000488281</ele>
        <time>2021-08-11T07:11:07Z</time>
      </trkpt>
      <trkpt lat="44.66846" lon="5.85065">
        <ele>1470.1999511719</ele>
        <time>2021-08-11T07:11:26Z</time>
      </trkpt>
      <trkpt lat="44.6685" lon="5.85043">
        <ele>1471.5999755859</ele>
        <time>2021-08-11T07:11:44Z</time>
      </trkpt>
      <trkpt lat="44.66856" lon="5.85024">
        <ele>1473</ele>
        <time>2021-08-11T07:12:00Z</time>
      </trkpt>
      <trkpt lat="44.66862" lon="5.85004">
        <ele>1474.4000244141</ele>
        <time>2021-08-11T07:12:19Z</time>
      </trkpt>
      <trkpt lat="44.66866" lon="5.84976">
        <ele>1477.1999511719</ele>
        <time>2021-08-11T07:12:44Z</time>
      </trkpt>
      <trkpt lat="44.66866" lon="5.84952">
        <ele>1478.8000488281</ele>
        <time>2021-08-11T07:13:01Z</time>
      </trkpt>
      <trkpt lat="44.66867" lon="5.84936">
        <ele>1479.8000488281</ele>
        <time>2021-08-11T07:13:13Z</time>
      </trkpt>
      <trkpt lat="44.6687" lon="5.84918">
        <ele>1481.1999511719</ele>
        <time>2021-08-11T07:13:26Z</time>
      </trkpt>
      <trkpt lat="44.66871" lon="5.84915">
        <ele>1481.1999511719</ele>
        <time>2021-08-11T07:13:28Z</time>
      </trkpt>
      <trkpt lat="44.66874" lon="5.84884">
        <ele>1482</ele>
        <time>2021-08-11T07:13:49Z</time>
      </trkpt>
      <trkpt lat="44.66877" lon="5.84856">
        <ele>1482.1999511719</ele>
        <time>2021-08-11T07:14:07Z</time>
      </trkpt>
      <trkpt lat="44.66878" lon="5.84855">
        <ele>1482.1999511719</ele>
        <time>2021-08-11T07:14:08Z</time>
      </trkpt>
      <trkpt lat="44.6688" lon="5.84851">
        <ele>1482.1999511719</ele>
        <time>2021-08-11T07:14:12Z</time>
      </trkpt>
      <trkpt lat="44.66883" lon="5.84848">
        <ele>1482.1999511719</ele>
        <time>2021-08-11T07:14:15Z</time>
      </trkpt>
      <trkpt lat="44.6689" lon="5.8483">
        <ele>1484</ele>
        <time>2021-08-11T07:14:32Z</time>
      </trkpt>
      <trkpt lat="44.6689" lon="5.84825">
        <ele>1484.5999755859</ele>
        <time>2021-08-11T07:14:36Z</time>
      </trkpt>
      <trkpt lat="44.66889" lon="5.84811">
        <ele>1486</ele>
        <time>2021-08-11T07:14:48Z</time>
      </trkpt>
      <trkpt lat="44.66892" lon="5.84802">
        <ele>1486.8000488281</ele>
        <time>2021-08-11T07:14:56Z</time>
      </trkpt>
      <trkpt lat="44.66899" lon="5.84781">
        <ele>1488.4000244141</ele>
        <time>2021-08-11T07:15:14Z</time>
      </trkpt>
      <trkpt lat="44.66903" lon="5.84763">
        <ele>1490</ele>
        <time>2021-08-11T07:15:30Z</time>
      </trkpt>
      <trkpt lat="44.66903" lon="5.84736">
        <ele>1492.4000244141</ele>
        <time>2021-08-11T07:15:51Z</time>
      </trkpt>
      <trkpt lat="44.66903" lon="5.8473">
        <ele>1493</ele>
        <time>2021-08-11T07:15:55Z</time>
      </trkpt>
      <trkpt lat="44.66903" lon="5.8471">
        <ele>1494.1999511719</ele>
        <time>2021-08-11T07:16:09Z</time>
      </trkpt>
      <trkpt lat="44.66907" lon="5.84692">
        <ele>1495.5999755859</ele>
        <time>2021-08-11T07:16:25Z</time>
      </trkpt>
      <trkpt lat="44.6691" lon="5.84672">
        <ele>1496.1999511719</ele>
        <time>2021-08-11T07:16:40Z</time>
      </trkpt>
      <trkpt lat="44.66911" lon="5.8467">
        <ele>1496.1999511719</ele>
        <time>2021-08-11T07:16:41Z</time>
      </trkpt>
      <trkpt lat="44.66913" lon="5.84652">
        <ele>1496.8000488281</ele>
        <time>2021-08-11T07:16:56Z</time>
      </trkpt>
      <trkpt lat="44.66918" lon="5.8464">
        <ele>1497.4000244141</ele>
        <time>2021-08-11T07:17:06Z</time>
      </trkpt>
      <trkpt lat="44.66926" lon="5.84623">
        <ele>1497.1999511719</ele>
        <time>2021-08-11T07:17:22Z</time>
      </trkpt>
      <trkpt lat="44.66938" lon="5.84605">
        <ele>1498</ele>
        <time>2021-08-11T07:17:42Z</time>
      </trkpt>
      <trkpt lat="44.66947" lon="5.84589">
        <ele>1500.4000244141</ele>
        <time>2021-08-11T07:18:04Z</time>
      </trkpt>
      <trkpt lat="44.66953" lon="5.84576">
        <ele>1502.1999511719</ele>
        <time>2021-08-11T07:18:24Z</time>
      </trkpt>
      <trkpt lat="44.66957" lon="5.8456">
        <ele>1504.5999755859</ele>
        <time>2021-08-11T07:18:40Z</time>
      </trkpt>
      <trkpt lat="44.66958" lon="5.8454">
        <ele>1507.5999755859</ele>
        <time>2021-08-11T07:18:59Z</time>
      </trkpt>
      <trkpt lat="44.6696" lon="5.84524">
        <ele>1510.5999755859</ele>
        <time>2021-08-11T07:19:15Z</time>
      </trkpt>
      <trkpt lat="44.66964" lon="5.84509">
        <ele>1513.5999755859</ele>
        <time>2021-08-11T07:19:34Z</time>
      </trkpt>
      <trkpt lat="44.66969" lon="5.84488">
        <ele>1515.8000488281</ele>
        <time>2021-08-11T07:19:53Z</time>
      </trkpt>
      <trkpt lat="44.66976" lon="5.84471">
        <ele>1518</ele>
        <time>2021-08-11T07:20:12Z</time>
      </trkpt>
      <trkpt lat="44.66979" lon="5.8445">
        <ele>1521</ele>
        <time>2021-08-11T07:20:36Z</time>
      </trkpt>
      <trkpt lat="44.66988" lon="5.84436">
        <ele>1524</ele>
        <time>2021-08-11T07:20:55Z</time>
      </trkpt>
      <trkpt lat="44.66991" lon="5.84417">
        <ele>1527.1999511719</ele>
        <time>2021-08-11T07:21:18Z</time>
      </trkpt>
      <trkpt lat="44.6699" lon="5.84399">
        <ele>1530.4000244141</ele>
        <time>2021-08-11T07:21:40Z</time>
      </trkpt>
      <trkpt lat="44.6698" lon="5.84389">
        <ele>1533.4000244141</ele>
        <time>2021-08-11T07:22:01Z</time>
      </trkpt>
      <trkpt lat="44.66966" lon="5.84389">
        <ele>1536.1999511719</ele>
        <time>2021-08-11T07:22:22Z</time>
      </trkpt>
      <trkpt lat="44.66953" lon="5.84389">
        <ele>1538.4000244141</ele>
        <time>2021-08-11T07:22:42Z</time>
      </trkpt>
      <trkpt lat="44.66944" lon="5.84383">
        <ele>1540.5999755859</ele>
        <time>2021-08-11T07:23:01Z</time>
      </trkpt>
      <trkpt lat="44.66933" lon="5.84383">
        <ele>1543.4000244141</ele>
        <time>2021-08-11T07:23:19Z</time>
      </trkpt>
      <trkpt lat="44.66921" lon="5.84389">
        <ele>1545.5999755859</ele>
        <time>2021-08-11T07:23:37Z</time>
      </trkpt>
      <trkpt lat="44.66911" lon="5.84387">
        <ele>1547.1999511719</ele>
        <time>2021-08-11T07:23:51Z</time>
      </trkpt>
      <trkpt lat="44.66907" lon="5.84388">
        <ele>1547.5999755859</ele>
        <time>2021-08-11T07:23:55Z</time>
      </trkpt>
      <trkpt lat="44.66903" lon="5.84388">
        <ele>1548</ele>
        <time>2021-08-11T07:23:58Z</time>
      </trkpt>
      <trkpt lat="44.66891" lon="5.84385">
        <ele>1549.4000244141</ele>
        <time>2021-08-11T07:24:13Z</time>
      </trkpt>
      <trkpt lat="44.66878" lon="5.8438">
        <ele>1551.5999755859</ele>
        <time>2021-08-11T07:24:33Z</time>
      </trkpt>
      <trkpt lat="44.66868" lon="5.8438">
        <ele>1553.4000244141</ele>
        <time>2021-08-11T07:24:49Z</time>
      </trkpt>
      <trkpt lat="44.66854" lon="5.84369">
        <ele>1556.4000244141</ele>
        <time>2021-08-11T07:25:11Z</time>
      </trkpt>
      <trkpt lat="44.66852" lon="5.84367">
        <ele>1556.8000488281</ele>
        <time>2021-08-11T07:25:14Z</time>
      </trkpt>
      <trkpt lat="44.66837" lon="5.84365">
        <ele>1559.1999511719</ele>
        <time>2021-08-11T07:25:33Z</time>
      </trkpt>
      <trkpt lat="44.66829" lon="5.84365">
        <ele>1560</ele>
        <time>2021-08-11T07:25:42Z</time>
      </trkpt>
      <trkpt lat="44.66818" lon="5.84362">
        <ele>1561.4000244141</ele>
        <time>2021-08-11T07:25:56Z</time>
      </trkpt>
      <trkpt lat="44.66806" lon="5.84359">
        <ele>1563</ele>
        <time>2021-08-11T07:26:10Z</time>
      </trkpt>
      <trkpt lat="44.66792" lon="5.84355">
        <ele>1565</ele>
        <time>2021-08-11T07:26:30Z</time>
      </trkpt>
      <trkpt lat="44.66783" lon="5.84341">
        <ele>1567.1999511719</ele>
        <time>2021-08-11T07:26:48Z</time>
      </trkpt>
      <trkpt lat="44.66776" lon="5.84313">
        <ele>1568.5999755859</ele>
        <time>2021-08-11T07:27:14Z</time>
      </trkpt>
      <trkpt lat="44.66774" lon="5.8429">
        <ele>1571</ele>
        <time>2021-08-11T07:27:36Z</time>
      </trkpt>
      <trkpt lat="44.66765" lon="5.84267">
        <ele>1572.5999755859</ele>
        <time>2021-08-11T07:27:59Z</time>
      </trkpt>
      <trkpt lat="44.6676" lon="5.8426">
        <ele>1573</ele>
        <time>2021-08-11T07:28:15Z</time>
      </trkpt>
      <trkpt lat="44.66747" lon="5.84253">
        <ele>1575</ele>
        <time>2021-08-11T07:28:35Z</time>
      </trkpt>
      <trkpt lat="44.66737" lon="5.8424">
        <ele>1578.1999511719</ele>
        <time>2021-08-11T07:28:56Z</time>
      </trkpt>
      <trkpt lat="44.66731" lon="5.8423">
        <ele>1581.1999511719</ele>
        <time>2021-08-11T07:29:14Z</time>
      </trkpt>
      <trkpt lat="44.66723" lon="5.84219">
        <ele>1584.4000244141</ele>
        <time>2021-08-11T07:29:33Z</time>
      </trkpt>
      <trkpt lat="44.6671" lon="5.8421">
        <ele>1587</ele>
        <time>2021-08-11T07:29:53Z</time>
      </trkpt>
      <trkpt lat="44.66693" lon="5.84204">
        <ele>1588.8000488281</ele>
        <time>2021-08-11T07:30:18Z</time>
      </trkpt>
      <trkpt lat="44.66684" lon="5.84183">
        <ele>1590.1999511719</ele>
        <time>2021-08-11T07:30:38Z</time>
      </trkpt>
      <trkpt lat="44.66673" lon="5.84164">
        <ele>1591.8000488281</ele>
        <time>2021-08-11T07:30:57Z</time>
      </trkpt>
      <trkpt lat="44.66664" lon="5.84151">
        <ele>1594.1999511719</ele>
        <time>2021-08-11T07:31:15Z</time>
      </trkpt>
      <trkpt lat="44.66657" lon="5.84128">
        <ele>1597.1999511719</ele>
        <time>2021-08-11T07:31:42Z</time>
      </trkpt>
      <trkpt lat="44.66653" lon="5.84112">
        <ele>1599.8000488281</ele>
        <time>2021-08-11T07:32:02Z</time>
      </trkpt>
      <trkpt lat="44.6665" lon="5.84099">
        <ele>1602.8000488281</ele>
        <time>2021-08-11T07:32:27Z</time>
      </trkpt>
      <trkpt lat="44.66648" lon="5.84079">
        <ele>1604.8000488281</ele>
        <time>2021-08-11T07:32:52Z</time>
      </trkpt>
      <trkpt lat="44.66647" lon="5.84064">
        <ele>1607.8000488281</ele>
        <time>2021-08-11T07:33:10Z</time>
      </trkpt>
      <trkpt lat="44.66643" lon="5.84043">
        <ele>1610.5999755859</ele>
        <time>2021-08-11T07:33:33Z</time>
      </trkpt>
      <trkpt lat="44.66638" lon="5.84028">
        <ele>1613.5999755859</ele>
        <time>2021-08-11T07:33:55Z</time>
      </trkpt>
      <trkpt lat="44.66643" lon="5.84017">
        <ele>1616.8000488281</ele>
        <time>2021-08-11T07:34:15Z</time>
      </trkpt>
      <trkpt lat="44.66643" lon="5.84018">
        <ele>1618.8000488281</ele>
        <time>2021-08-11T07:35:09Z</time>
      </trkpt>
      <trkpt lat="44.66662" lon="5.84016">
        <ele>1620.1999511719</ele>
        <time>2021-08-11T07:35:33Z</time>
      </trkpt>
      <trkpt lat="44.66673" lon="5.84009">
        <ele>1623.4000244141</ele>
        <time>2021-08-11T07:35:52Z</time>
      </trkpt>
      <trkpt lat="44.66679" lon="5.83999">
        <ele>1626.4000244141</ele>
        <time>2021-08-11T07:36:10Z</time>
      </trkpt>
      <trkpt lat="44.6669" lon="5.83989">
        <ele>1629.1999511719</ele>
        <time>2021-08-11T07:36:30Z</time>
      </trkpt>
      <trkpt lat="44.66698" lon="5.83973">
        <ele>1631.5999755859</ele>
        <time>2021-08-11T07:36:50Z</time>
      </trkpt>
      <trkpt lat="44.66701" lon="5.83957">
        <ele>1633.8000488281</ele>
        <time>2021-08-11T07:37:09Z</time>
      </trkpt>
      <trkpt lat="44.66693" lon="5.83943">
        <ele>1636.1999511719</ele>
        <time>2021-08-11T07:37:29Z</time>
      </trkpt>
      <trkpt lat="44.66685" lon="5.83934">
        <ele>1639.1999511719</ele>
        <time>2021-08-11T07:37:52Z</time>
      </trkpt>
      <trkpt lat="44.66678" lon="5.83926">
        <ele>1642.1999511719</ele>
        <time>2021-08-11T07:38:12Z</time>
      </trkpt>
      <trkpt lat="44.6668" lon="5.83924">
        <ele>1643.1999511719</ele>
        <time>2021-08-11T07:38:58Z</time>
      </trkpt>
      <trkpt lat="44.66672" lon="5.83921">
        <ele>1643.5999755859</ele>
        <time>2021-08-11T07:39:19Z</time>
      </trkpt>
      <trkpt lat="44.66668" lon="5.83905">
        <ele>1646.1999511719</ele>
        <time>2021-08-11T07:39:40Z</time>
      </trkpt>
      <trkpt lat="44.66665" lon="5.83885">
        <ele>1649.1999511719</ele>
        <time>2021-08-11T07:39:59Z</time>
      </trkpt>
      <trkpt lat="44.6667" lon="5.83857">
        <ele>1652.1999511719</ele>
        <time>2021-08-11T07:40:23Z</time>
      </trkpt>
      <trkpt lat="44.66676" lon="5.83835">
        <ele>1654.1999511719</ele>
        <time>2021-08-11T07:40:44Z</time>
      </trkpt>
      <trkpt lat="44.66677" lon="5.83833">
        <ele>1654.5999755859</ele>
        <time>2021-08-11T07:40:47Z</time>
      </trkpt>
      <trkpt lat="44.66683" lon="5.83813">
        <ele>1656.5999755859</ele>
        <time>2021-08-11T07:41:10Z</time>
      </trkpt>
      <trkpt lat="44.66695" lon="5.83784">
        <ele>1657.8000488281</ele>
        <time>2021-08-11T07:41:36Z</time>
      </trkpt>
      <trkpt lat="44.66703" lon="5.83761">
        <ele>1660.8000488281</ele>
        <time>2021-08-11T07:42:01Z</time>
      </trkpt>
      <trkpt lat="44.66711" lon="5.83739">
        <ele>1663.5999755859</ele>
        <time>2021-08-11T07:42:25Z</time>
      </trkpt>
      <trkpt lat="44.66719" lon="5.83716">
        <ele>1666.4000244141</ele>
        <time>2021-08-11T07:42:50Z</time>
      </trkpt>
      <trkpt lat="44.66724" lon="5.83698">
        <ele>1669.5999755859</ele>
        <time>2021-08-11T07:43:15Z</time>
      </trkpt>
      <trkpt lat="44.6673" lon="5.8368">
        <ele>1671.5999755859</ele>
        <time>2021-08-11T07:43:40Z</time>
      </trkpt>
      <trkpt lat="44.66737" lon="5.83667">
        <ele>1674.4000244141</ele>
        <time>2021-08-11T07:44:01Z</time>
      </trkpt>
      <trkpt lat="44.66746" lon="5.83646">
        <ele>1676.1999511719</ele>
        <time>2021-08-11T07:44:23Z</time>
      </trkpt>
      <trkpt lat="44.66749" lon="5.83636">
        <ele>1676.8000488281</ele>
        <time>2021-08-11T07:44:33Z</time>
      </trkpt>
      <trkpt lat="44.66753" lon="5.83621">
        <ele>1677.8000488281</ele>
        <time>2021-08-11T07:45:03Z</time>
      </trkpt>
      <trkpt lat="44.66753" lon="5.8362">
        <ele>1677.5999755859</ele>
        <time>2021-08-11T07:45:42Z</time>
      </trkpt>
      <trkpt lat="44.66755" lon="5.83614">
        <ele>1677.5999755859</ele>
        <time>2021-08-11T07:46:03Z</time>
      </trkpt>
      <trkpt lat="44.66758" lon="5.83585">
        <ele>1680.1999511719</ele>
        <time>2021-08-11T07:46:32Z</time>
      </trkpt>
      <trkpt lat="44.6677" lon="5.83572">
        <ele>1681.8000488281</ele>
        <time>2021-08-11T07:46:53Z</time>
      </trkpt>
      <trkpt lat="44.66773" lon="5.83569">
        <ele>1684</ele>
        <time>2021-08-11T07:47:14Z</time>
      </trkpt>
      <trkpt lat="44.6678" lon="5.83572">
        <ele>1684.5999755859</ele>
        <time>2021-08-11T07:47:43Z</time>
      </trkpt>
      <trkpt lat="44.66789" lon="5.83578">
        <ele>1687.4000244141</ele>
        <time>2021-08-11T07:48:05Z</time>
      </trkpt>
      <trkpt lat="44.66799" lon="5.83579">
        <ele>1690.4000244141</ele>
        <time>2021-08-11T07:48:22Z</time>
      </trkpt>
      <trkpt lat="44.66808" lon="5.83575">
        <ele>1693.4000244141</ele>
        <time>2021-08-11T07:48:40Z</time>
      </trkpt>
      <trkpt lat="44.66817" lon="5.83573">
        <ele>1696.5999755859</ele>
        <time>2021-08-11T07:48:58Z</time>
      </trkpt>
      <trkpt lat="44.66823" lon="5.8357">
        <ele>1699.8000488281</ele>
        <time>2021-08-11T07:49:19Z</time>
      </trkpt>
      <trkpt lat="44.66827" lon="5.83563">
        <ele>1702.5999755859</ele>
        <time>2021-08-11T07:49:43Z</time>
      </trkpt>
      <trkpt lat="44.66835" lon="5.83555">
        <ele>1703.4000244141</ele>
        <time>2021-08-11T07:50:08Z</time>
      </trkpt>
      <trkpt lat="44.6684" lon="5.83558">
        <ele>1706.4000244141</ele>
        <time>2021-08-11T07:50:20Z</time>
      </trkpt>
      <trkpt lat="44.66847" lon="5.83551">
        <ele>1709.5999755859</ele>
        <time>2021-08-11T07:50:39Z</time>
      </trkpt>
      <trkpt lat="44.66853" lon="5.83538">
        <ele>1712.5999755859</ele>
        <time>2021-08-11T07:51:00Z</time>
      </trkpt>
      <trkpt lat="44.66858" lon="5.83525">
        <ele>1715.8000488281</ele>
        <time>2021-08-11T07:51:20Z</time>
      </trkpt>
      <trkpt lat="44.66863" lon="5.83518">
        <ele>1718.8000488281</ele>
        <time>2021-08-11T07:51:39Z</time>
      </trkpt>
      <trkpt lat="44.66874" lon="5.83507">
        <ele>1722</ele>
        <time>2021-08-11T07:52:03Z</time>
      </trkpt>
      <trkpt lat="44.66884" lon="5.83494">
        <ele>1725</ele>
        <time>2021-08-11T07:52:24Z</time>
      </trkpt>
      <trkpt lat="44.66893" lon="5.83481">
        <ele>1728</ele>
        <time>2021-08-11T07:52:48Z</time>
      </trkpt>
      <trkpt lat="44.66904" lon="5.8347">
        <ele>1731</ele>
        <time>2021-08-11T07:53:13Z</time>
      </trkpt>
      <trkpt lat="44.66913" lon="5.83461">
        <ele>1734.1999511719</ele>
        <time>2021-08-11T07:53:36Z</time>
      </trkpt>
      <trkpt lat="44.66921" lon="5.83452">
        <ele>1737.1999511719</ele>
        <time>2021-08-11T07:53:57Z</time>
      </trkpt>
      <trkpt lat="44.66923" lon="5.83452">
        <ele>1739</ele>
        <time>2021-08-11T07:54:25Z</time>
      </trkpt>
      <trkpt lat="44.66922" lon="5.83453">
        <ele>1739</ele>
        <time>2021-08-11T07:55:17Z</time>
      </trkpt>
      <trkpt lat="44.66926" lon="5.83448">
        <ele>1739</ele>
        <time>2021-08-11T07:55:42Z</time>
      </trkpt>
      <trkpt lat="44.66931" lon="5.83435">
        <ele>1742.1999511719</ele>
        <time>2021-08-11T07:56:03Z</time>
      </trkpt>
      <trkpt lat="44.66938" lon="5.83423">
        <ele>1745.1999511719</ele>
        <time>2021-08-11T07:56:23Z</time>
      </trkpt>
      <trkpt lat="44.66944" lon="5.83412">
        <ele>1748.4000244141</ele>
        <time>2021-08-11T07:56:40Z</time>
      </trkpt>
      <trkpt lat="44.66946" lon="5.83393">
        <ele>1751.5999755859</ele>
        <time>2021-08-11T07:57:03Z</time>
      </trkpt>
      <trkpt lat="44.66948" lon="5.83383">
        <ele>1754.1999511719</ele>
        <time>2021-08-11T07:57:27Z</time>
      </trkpt>
      <trkpt lat="44.66947" lon="5.83383">
        <ele>1754.4000244141</ele>
        <time>2021-08-11T07:58:17Z</time>
      </trkpt>
      <trkpt lat="44.66952" lon="5.83383">
        <ele>1754.4000244141</ele>
        <time>2021-08-11T07:59:20Z</time>
      </trkpt>
      <trkpt lat="44.66951" lon="5.83366">
        <ele>1755.1999511719</ele>
        <time>2021-08-11T07:59:41Z</time>
      </trkpt>
      <trkpt lat="44.66952" lon="5.83334">
        <ele>1757.5999755859</ele>
        <time>2021-08-11T08:00:10Z</time>
      </trkpt>
      <trkpt lat="44.66951" lon="5.83331">
        <ele>1757.8000488281</ele>
        <time>2021-08-11T08:00:12Z</time>
      </trkpt>
      <trkpt lat="44.66956" lon="5.83301">
        <ele>1760</ele>
        <time>2021-08-11T08:00:37Z</time>
      </trkpt>
      <trkpt lat="44.66956" lon="5.83276">
        <ele>1761.8000488281</ele>
        <time>2021-08-11T08:01:01Z</time>
      </trkpt>
      <trkpt lat="44.66958" lon="5.83249">
        <ele>1763.5999755859</ele>
        <time>2021-08-11T08:01:25Z</time>
      </trkpt>
      <trkpt lat="44.66965" lon="5.83236">
        <ele>1765.4000244141</ele>
        <time>2021-08-11T08:01:49Z</time>
      </trkpt>
      <trkpt lat="44.66973" lon="5.83212">
        <ele>1767.1999511719</ele>
        <time>2021-08-11T08:02:11Z</time>
      </trkpt>
      <trkpt lat="44.66974" lon="5.83204">
        <ele>1768.4000244141</ele>
        <time>2021-08-11T08:02:35Z</time>
      </trkpt>
      <trkpt lat="44.66976" lon="5.83187">
        <ele>1769.8000488281</ele>
        <time>2021-08-11T08:03:00Z</time>
      </trkpt>
      <trkpt lat="44.66973" lon="5.83173">
        <ele>1772</ele>
        <time>2021-08-11T08:03:26Z</time>
      </trkpt>
      <trkpt lat="44.66976" lon="5.83169">
        <ele>1773</ele>
        <time>2021-08-11T08:03:47Z</time>
      </trkpt>
      <trkpt lat="44.66968" lon="5.83181">
        <ele>1776</ele>
        <time>2021-08-11T08:04:12Z</time>
      </trkpt>
      <trkpt lat="44.66965" lon="5.83177">
        <ele>1778</ele>
        <time>2021-08-11T08:04:35Z</time>
      </trkpt>
      <trkpt lat="44.66965" lon="5.83159">
        <ele>1779.5999755859</ele>
        <time>2021-08-11T08:04:59Z</time>
      </trkpt>
      <trkpt lat="44.6697" lon="5.83148">
        <ele>1781</ele>
        <time>2021-08-11T08:05:24Z</time>
      </trkpt>
      <trkpt lat="44.66973" lon="5.8314">
        <ele>1782.4000244141</ele>
        <time>2021-08-11T08:05:43Z</time>
      </trkpt>
      <trkpt lat="44.66975" lon="5.83124">
        <ele>1782.8000488281</ele>
        <time>2021-08-11T08:06:06Z</time>
      </trkpt>
      <trkpt lat="44.66975" lon="5.8311">
        <ele>1782.4000244141</ele>
        <time>2021-08-11T08:06:30Z</time>
      </trkpt>
      <trkpt lat="44.66976" lon="5.83086">
        <ele>1781</ele>
        <time>2021-08-11T08:06:51Z</time>
      </trkpt>
      <trkpt lat="44.66973" lon="5.83068">
        <ele>1782</ele>
        <time>2021-08-11T08:07:19Z</time>
      </trkpt>
      <trkpt lat="44.6697" lon="5.83055">
        <ele>1781.4000244141</ele>
        <time>2021-08-11T08:07:45Z</time>
      </trkpt>
      <trkpt lat="44.66968" lon="5.83039">
        <ele>1783</ele>
        <time>2021-08-11T08:08:09Z</time>
      </trkpt>
      <trkpt lat="44.66967" lon="5.83026">
        <ele>1783.1999511719</ele>
        <time>2021-08-11T08:08:31Z</time>
      </trkpt>
      <trkpt lat="44.66971" lon="5.8302">
        <ele>1782</ele>
        <time>2021-08-11T08:08:55Z</time>
      </trkpt>
      <trkpt lat="44.66976" lon="5.83018">
        <ele>1780</ele>
        <time>2021-08-11T08:09:21Z</time>
      </trkpt>
      <trkpt lat="44.66982" lon="5.83009">
        <ele>1777.5999755859</ele>
        <time>2021-08-11T08:09:43Z</time>
      </trkpt>
      <trkpt lat="44.66988" lon="5.83">
        <ele>1776.1999511719</ele>
        <time>2021-08-11T08:10:03Z</time>
      </trkpt>
      <trkpt lat="44.66985" lon="5.82996">
        <ele>1775</ele>
        <time>2021-08-11T08:10:24Z</time>
      </trkpt>
      <trkpt lat="44.66991" lon="5.82999">
        <ele>1775.1999511719</ele>
        <time>2021-08-11T08:10:53Z</time>
      </trkpt>
      <trkpt lat="44.6699" lon="5.82995">
        <ele>1775</ele>
        <time>2021-08-11T08:11:21Z</time>
      </trkpt>
      <trkpt lat="44.66994" lon="5.82984">
        <ele>1773.8000488281</ele>
        <time>2021-08-11T08:11:46Z</time>
      </trkpt>
      <trkpt lat="44.67002" lon="5.82978">
        <ele>1771.4000244141</ele>
        <time>2021-08-11T08:12:08Z</time>
      </trkpt>
      <trkpt lat="44.67001" lon="5.82968">
        <ele>1768.8000488281</ele>
        <time>2021-08-11T08:12:29Z</time>
      </trkpt>
      <trkpt lat="44.67" lon="5.8295">
        <ele>1765.8000488281</ele>
        <time>2021-08-11T08:12:53Z</time>
      </trkpt>
      <trkpt lat="44.66999" lon="5.82936">
        <ele>1762.8000488281</ele>
        <time>2021-08-11T08:13:16Z</time>
      </trkpt>
      <trkpt lat="44.67002" lon="5.82921">
        <ele>1760.4000244141</ele>
        <time>2021-08-11T08:13:37Z</time>
      </trkpt>
      <trkpt lat="44.67001" lon="5.82906">
        <ele>1759.8000488281</ele>
        <time>2021-08-11T08:13:58Z</time>
      </trkpt>
      <trkpt lat="44.66993" lon="5.82894">
        <ele>1759.1999511719</ele>
        <time>2021-08-11T08:14:25Z</time>
      </trkpt>
      <trkpt lat="44.6699" lon="5.82874">
        <ele>1758.8000488281</ele>
        <time>2021-08-11T08:14:46Z</time>
      </trkpt>
      <trkpt lat="44.66987" lon="5.82844">
        <ele>1758.1999511719</ele>
        <time>2021-08-11T08:15:09Z</time>
      </trkpt>
      <trkpt lat="44.66986" lon="5.82826">
        <ele>1757.8000488281</ele>
        <time>2021-08-11T08:15:22Z</time>
      </trkpt>
      <trkpt lat="44.66984" lon="5.828">
        <ele>1757.1999511719</ele>
        <time>2021-08-11T08:15:43Z</time>
      </trkpt>
      <trkpt lat="44.66988" lon="5.82777">
        <ele>1757.8000488281</ele>
        <time>2021-08-11T08:16:01Z</time>
      </trkpt>
      <trkpt lat="44.66993" lon="5.82753">
        <ele>1758.4000244141</ele>
        <time>2021-08-11T08:16:18Z</time>
      </trkpt>
      <trkpt lat="44.66995" lon="5.82746">
        <ele>1758.4000244141</ele>
        <time>2021-08-11T08:16:26Z</time>
      </trkpt>
      <trkpt lat="44.66997" lon="5.82738">
        <ele>1758.4000244141</ele>
        <time>2021-08-11T08:16:32Z</time>
      </trkpt>
      <trkpt lat="44.67004" lon="5.82718">
        <ele>1758.8000488281</ele>
        <time>2021-08-11T08:16:50Z</time>
      </trkpt>
      <trkpt lat="44.67009" lon="5.82701">
        <ele>1759</ele>
        <time>2021-08-11T08:17:04Z</time>
      </trkpt>
      <trkpt lat="44.67016" lon="5.82681">
        <ele>1759.4000244141</ele>
        <time>2021-08-11T08:17:24Z</time>
      </trkpt>
      <trkpt lat="44.67022" lon="5.82659">
        <ele>1760.1999511719</ele>
        <time>2021-08-11T08:17:43Z</time>
      </trkpt>
      <trkpt lat="44.67023" lon="5.82649">
        <ele>1760.4000244141</ele>
        <time>2021-08-11T08:17:51Z</time>
      </trkpt>
      <trkpt lat="44.67024" lon="5.82623">
        <ele>1762</ele>
        <time>2021-08-11T08:18:14Z</time>
      </trkpt>
      <trkpt lat="44.67027" lon="5.82607">
        <ele>1765</ele>
        <time>2021-08-11T08:18:38Z</time>
      </trkpt>
      <trkpt lat="44.67027" lon="5.82607">
        <ele>1765.1999511719</ele>
        <time>2021-08-11T08:18:43Z</time>
      </trkpt>
      <trkpt lat="44.67025" lon="5.82602">
        <ele>1765.4000244141</ele>
        <time>2021-08-11T08:19:04Z</time>
      </trkpt>
      <trkpt lat="44.67027" lon="5.82595">
        <ele>1767</ele>
        <time>2021-08-11T08:19:49Z</time>
      </trkpt>
      <trkpt lat="44.67027" lon="5.82587">
        <ele>1766.4000244141</ele>
        <time>2021-08-11T08:20:12Z</time>
      </trkpt>
      <trkpt lat="44.67026" lon="5.82558">
        <ele>1767</ele>
        <time>2021-08-11T08:20:36Z</time>
      </trkpt>
      <trkpt lat="44.67032" lon="5.82538">
        <ele>1767</ele>
        <time>2021-08-11T08:20:57Z</time>
      </trkpt>
      <trkpt lat="44.67036" lon="5.82533">
        <ele>1766.8000488281</ele>
        <time>2021-08-11T08:21:20Z</time>
      </trkpt>
      <trkpt lat="44.67045" lon="5.82524">
        <ele>1767</ele>
        <time>2021-08-11T08:21:43Z</time>
      </trkpt>
      <trkpt lat="44.67048" lon="5.82511">
        <ele>1767</ele>
        <time>2021-08-11T08:22:03Z</time>
      </trkpt>
      <trkpt lat="44.67056" lon="5.82486">
        <ele>1767.5999755859</ele>
        <time>2021-08-11T08:22:24Z</time>
      </trkpt>
      <trkpt lat="44.67057" lon="5.8248">
        <ele>1767.8000488281</ele>
        <time>2021-08-11T08:22:29Z</time>
      </trkpt>
      <trkpt lat="44.67062" lon="5.82473">
        <ele>1767.8000488281</ele>
        <time>2021-08-11T08:22:36Z</time>
      </trkpt>
      <trkpt lat="44.67074" lon="5.82463">
        <ele>1767.8000488281</ele>
        <time>2021-08-11T08:22:52Z</time>
      </trkpt>
      <trkpt lat="44.67083" lon="5.82457">
        <ele>1768.1999511719</ele>
        <time>2021-08-11T08:23:10Z</time>
      </trkpt>
      <trkpt lat="44.67086" lon="5.82447">
        <ele>1768.4000244141</ele>
        <time>2021-08-11T08:23:35Z</time>
      </trkpt>
      <trkpt lat="44.67091" lon="5.82432">
        <ele>1768.4000244141</ele>
        <time>2021-08-11T08:23:57Z</time>
      </trkpt>
      <trkpt lat="44.67107" lon="5.82409">
        <ele>1768.5999755859</ele>
        <time>2021-08-11T08:24:27Z</time>
      </trkpt>
      <trkpt lat="44.67109" lon="5.82395">
        <ele>1768.5999755859</ele>
        <time>2021-08-11T08:24:41Z</time>
      </trkpt>
      <trkpt lat="44.67113" lon="5.82394">
        <ele>1768.5999755859</ele>
        <time>2021-08-11T08:25:17Z</time>
      </trkpt>
      <trkpt lat="44.67115" lon="5.82391">
        <ele>1768.5999755859</ele>
        <time>2021-08-11T08:25:53Z</time>
      </trkpt>
      <trkpt lat="44.67127" lon="5.82371">
        <ele>1769.4000244141</ele>
        <time>2021-08-11T08:26:17Z</time>
      </trkpt>
      <trkpt lat="44.67137" lon="5.82346">
        <ele>1770.8000488281</ele>
        <time>2021-08-11T08:26:42Z</time>
      </trkpt>
      <trkpt lat="44.67145" lon="5.8232">
        <ele>1771.5999755859</ele>
        <time>2021-08-11T08:27:05Z</time>
      </trkpt>
      <trkpt lat="44.67147" lon="5.8231">
        <ele>1771.8000488281</ele>
        <time>2021-08-11T08:27:13Z</time>
      </trkpt>
      <trkpt lat="44.67154" lon="5.82288">
        <ele>1772.8000488281</ele>
        <time>2021-08-11T08:27:33Z</time>
      </trkpt>
      <trkpt lat="44.67155" lon="5.82258">
        <ele>1772.8000488281</ele>
        <time>2021-08-11T08:27:57Z</time>
      </trkpt>
      <trkpt lat="44.67153" lon="5.82249">
        <ele>1773</ele>
        <time>2021-08-11T08:28:21Z</time>
      </trkpt>
      <trkpt lat="44.6715" lon="5.82232">
        <ele>1773</ele>
        <time>2021-08-11T08:28:40Z</time>
      </trkpt>
      <trkpt lat="44.67148" lon="5.82194">
        <ele>1773.8000488281</ele>
        <time>2021-08-11T08:29:11Z</time>
      </trkpt>
      <trkpt lat="44.67146" lon="5.82167">
        <ele>1774.1999511719</ele>
        <time>2021-08-11T08:29:31Z</time>
      </trkpt>
      <trkpt lat="44.67138" lon="5.82148">
        <ele>1774.8000488281</ele>
        <time>2021-08-11T08:29:50Z</time>
      </trkpt>
      <trkpt lat="44.67136" lon="5.82144">
        <ele>1775</ele>
        <time>2021-08-11T08:29:54Z</time>
      </trkpt>
      <trkpt lat="44.6713" lon="5.82126">
        <ele>1775.5999755859</ele>
        <time>2021-08-11T08:30:10Z</time>
      </trkpt>
      <trkpt lat="44.67128" lon="5.82113">
        <ele>1776</ele>
        <time>2021-08-11T08:30:32Z</time>
      </trkpt>
      <trkpt lat="44.67121" lon="5.82083">
        <ele>1776.8000488281</ele>
        <time>2021-08-11T08:30:55Z</time>
      </trkpt>
      <trkpt lat="44.67116" lon="5.82054">
        <ele>1777.4000244141</ele>
        <time>2021-08-11T08:31:18Z</time>
      </trkpt>
      <trkpt lat="44.6711" lon="5.82028">
        <ele>1778.1999511719</ele>
        <time>2021-08-11T08:31:40Z</time>
      </trkpt>
      <trkpt lat="44.67106" lon="5.82013">
        <ele>1778.8000488281</ele>
        <time>2021-08-11T08:32:02Z</time>
      </trkpt>
      <trkpt lat="44.67104" lon="5.81996">
        <ele>1779</ele>
        <time>2021-08-11T08:32:31Z</time>
      </trkpt>
      <trkpt lat="44.67097" lon="5.8198">
        <ele>1779.5999755859</ele>
        <time>2021-08-11T08:32:46Z</time>
      </trkpt>
      <trkpt lat="44.67096" lon="5.81957">
        <ele>1778.5999755859</ele>
        <time>2021-08-11T08:33:08Z</time>
      </trkpt>
      <trkpt lat="44.6709" lon="5.81923">
        <ele>1778</ele>
        <time>2021-08-11T08:33:35Z</time>
      </trkpt>
      <trkpt lat="44.67084" lon="5.81901">
        <ele>1778.1999511719</ele>
        <time>2021-08-11T08:33:57Z</time>
      </trkpt>
      <trkpt lat="44.67086" lon="5.81875">
        <ele>1779.1999511719</ele>
        <time>2021-08-11T08:34:19Z</time>
      </trkpt>
      <trkpt lat="44.67089" lon="5.81856">
        <ele>1780.1999511719</ele>
        <time>2021-08-11T08:34:47Z</time>
      </trkpt>
      <trkpt lat="44.67092" lon="5.81836">
        <ele>1780.4000244141</ele>
        <time>2021-08-11T08:35:08Z</time>
      </trkpt>
      <trkpt lat="44.67092" lon="5.81833">
        <ele>1780.4000244141</ele>
        <time>2021-08-11T08:35:10Z</time>
      </trkpt>
      <trkpt lat="44.67093" lon="5.81828">
        <ele>1780.5999755859</ele>
        <time>2021-08-11T08:35:14Z</time>
      </trkpt>
      <trkpt lat="44.67096" lon="5.81814">
        <ele>1781.4000244141</ele>
        <time>2021-08-11T08:35:25Z</time>
      </trkpt>
      <trkpt lat="44.67095" lon="5.81789">
        <ele>1783.4000244141</ele>
        <time>2021-08-11T08:35:48Z</time>
      </trkpt>
      <trkpt lat="44.67096" lon="5.81759">
        <ele>1784.5999755859</ele>
        <time>2021-08-11T08:36:09Z</time>
      </trkpt>
      <trkpt lat="44.67093" lon="5.81741">
        <ele>1785</ele>
        <time>2021-08-11T08:36:27Z</time>
      </trkpt>
      <trkpt lat="44.67091" lon="5.81717">
        <ele>1785.5999755859</ele>
        <time>2021-08-11T08:36:46Z</time>
      </trkpt>
      <trkpt lat="44.67088" lon="5.81696">
        <ele>1786</ele>
        <time>2021-08-11T08:37:03Z</time>
      </trkpt>
      <trkpt lat="44.67086" lon="5.81674">
        <ele>1786.8000488281</ele>
        <time>2021-08-11T08:37:21Z</time>
      </trkpt>
      <trkpt lat="44.67085" lon="5.8165">
        <ele>1787.5999755859</ele>
        <time>2021-08-11T08:37:40Z</time>
      </trkpt>
      <trkpt lat="44.67084" lon="5.81646">
        <ele>1788</ele>
        <time>2021-08-11T08:37:43Z</time>
      </trkpt>
      <trkpt lat="44.67081" lon="5.8162">
        <ele>1789.4000244141</ele>
        <time>2021-08-11T08:38:03Z</time>
      </trkpt>
      <trkpt lat="44.67077" lon="5.81601">
        <ele>1789.5999755859</ele>
        <time>2021-08-11T08:38:18Z</time>
      </trkpt>
      <trkpt lat="44.67071" lon="5.8158">
        <ele>1790.4000244141</ele>
        <time>2021-08-11T08:38:38Z</time>
      </trkpt>
      <trkpt lat="44.67073" lon="5.81557">
        <ele>1791.8000488281</ele>
        <time>2021-08-11T08:38:56Z</time>
      </trkpt>
      <trkpt lat="44.67072" lon="5.81545">
        <ele>1792</ele>
        <time>2021-08-11T08:39:03Z</time>
      </trkpt>
      <trkpt lat="44.67071" lon="5.81534">
        <ele>1792</ele>
        <time>2021-08-11T08:39:10Z</time>
      </trkpt>
      <trkpt lat="44.6707" lon="5.81523">
        <ele>1792.4000244141</ele>
        <time>2021-08-11T08:39:28Z</time>
      </trkpt>
      <trkpt lat="44.67071" lon="5.81512">
        <ele>1792.4000244141</ele>
        <time>2021-08-11T08:39:38Z</time>
      </trkpt>
      <trkpt lat="44.67072" lon="5.81509">
        <ele>1792.4000244141</ele>
        <time>2021-08-11T08:39:40Z</time>
      </trkpt>
      <trkpt lat="44.67074" lon="5.81487">
        <ele>1792.1999511719</ele>
        <time>2021-08-11T08:39:58Z</time>
      </trkpt>
      <trkpt lat="44.67078" lon="5.81471">
        <ele>1792.5999755859</ele>
        <time>2021-08-11T08:40:12Z</time>
      </trkpt>
      <trkpt lat="44.6708" lon="5.81459">
        <ele>1793.5999755859</ele>
        <time>2021-08-11T08:40:30Z</time>
      </trkpt>
      <trkpt lat="44.67079" lon="5.81442">
        <ele>1794.1999511719</ele>
        <time>2021-08-11T08:40:52Z</time>
      </trkpt>
      <trkpt lat="44.6708" lon="5.81436">
        <ele>1794.4000244141</ele>
        <time>2021-08-11T08:41:10Z</time>
      </trkpt>
      <trkpt lat="44.67085" lon="5.81413">
        <ele>1794.5999755859</ele>
        <time>2021-08-11T08:41:33Z</time>
      </trkpt>
      <trkpt lat="44.67093" lon="5.81387">
        <ele>1796.4000244141</ele>
        <time>2021-08-11T08:41:57Z</time>
      </trkpt>
      <trkpt lat="44.67097" lon="5.81377">
        <ele>1796.4000244141</ele>
        <time>2021-08-11T08:42:05Z</time>
      </trkpt>
      <trkpt lat="44.67103" lon="5.81353">
        <ele>1796.5999755859</ele>
        <time>2021-08-11T08:42:28Z</time>
      </trkpt>
      <trkpt lat="44.671" lon="5.81334">
        <ele>1796.4000244141</ele>
        <time>2021-08-11T08:42:47Z</time>
      </trkpt>
      <trkpt lat="44.67102" lon="5.81305">
        <ele>1799</ele>
        <time>2021-08-11T08:43:13Z</time>
      </trkpt>
      <trkpt lat="44.67101" lon="5.81299">
        <ele>1799.4000244141</ele>
        <time>2021-08-11T08:43:18Z</time>
      </trkpt>
      <trkpt lat="44.67103" lon="5.81289">
        <ele>1799.8000488281</ele>
        <time>2021-08-11T08:43:26Z</time>
      </trkpt>
      <trkpt lat="44.67103" lon="5.81269">
        <ele>1800.1999511719</ele>
        <time>2021-08-11T08:43:43Z</time>
      </trkpt>
      <trkpt lat="44.67099" lon="5.81242">
        <ele>1800.8000488281</ele>
        <time>2021-08-11T08:44:03Z</time>
      </trkpt>
      <trkpt lat="44.67092" lon="5.81221">
        <ele>1800.5999755859</ele>
        <time>2021-08-11T08:44:22Z</time>
      </trkpt>
      <trkpt lat="44.67095" lon="5.81202">
        <ele>1800.8000488281</ele>
        <time>2021-08-11T08:44:38Z</time>
      </trkpt>
      <trkpt lat="44.67098" lon="5.81182">
        <ele>1802.1999511719</ele>
        <time>2021-08-11T08:44:57Z</time>
      </trkpt>
      <trkpt lat="44.67097" lon="5.8118">
        <ele>1802.4000244141</ele>
        <time>2021-08-11T08:44:59Z</time>
      </trkpt>
      <trkpt lat="44.67095" lon="5.81156">
        <ele>1802.4000244141</ele>
        <time>2021-08-11T08:45:17Z</time>
      </trkpt>
      <trkpt lat="44.67093" lon="5.8113">
        <ele>1803.1999511719</ele>
        <time>2021-08-11T08:45:42Z</time>
      </trkpt>
      <trkpt lat="44.6709" lon="5.81109">
        <ele>1804.8000488281</ele>
        <time>2021-08-11T08:46:04Z</time>
      </trkpt>
      <trkpt lat="44.67084" lon="5.8109">
        <ele>1804.1999511719</ele>
        <time>2021-08-11T08:46:23Z</time>
      </trkpt>
      <trkpt lat="44.6708" lon="5.8108">
        <ele>1804</ele>
        <time>2021-08-11T08:46:40Z</time>
      </trkpt>
      <trkpt lat="44.67073" lon="5.8107">
        <ele>1805</ele>
        <time>2021-08-11T08:47:00Z</time>
      </trkpt>
      <trkpt lat="44.67067" lon="5.81062">
        <ele>1805.4000244141</ele>
        <time>2021-08-11T08:47:15Z</time>
      </trkpt>
      <trkpt lat="44.67056" lon="5.81044">
        <ele>1807.1999511719</ele>
        <time>2021-08-11T08:47:35Z</time>
      </trkpt>
      <trkpt lat="44.67052" lon="5.81027">
        <ele>1808.8000488281</ele>
        <time>2021-08-11T08:47:54Z</time>
      </trkpt>
      <trkpt lat="44.67042" lon="5.81015">
        <ele>1810.4000244141</ele>
        <time>2021-08-11T08:48:16Z</time>
      </trkpt>
      <trkpt lat="44.67027" lon="5.81004">
        <ele>1811.8000488281</ele>
        <time>2021-08-11T08:48:38Z</time>
      </trkpt>
      <trkpt lat="44.67008" lon="5.8099">
        <ele>1813.1999511719</ele>
        <time>2021-08-11T08:49:03Z</time>
      </trkpt>
      <trkpt lat="44.67001" lon="5.80982">
        <ele>1813.5999755859</ele>
        <time>2021-08-11T08:49:21Z</time>
      </trkpt>
      <trkpt lat="44.6699" lon="5.80956">
        <ele>1815.4000244141</ele>
        <time>2021-08-11T08:49:46Z</time>
      </trkpt>
      <trkpt lat="44.6698" lon="5.80936">
        <ele>1817.1999511719</ele>
        <time>2021-08-11T08:50:11Z</time>
      </trkpt>
      <trkpt lat="44.66977" lon="5.80921">
        <ele>1817.8000488281</ele>
        <time>2021-08-11T08:50:30Z</time>
      </trkpt>
      <trkpt lat="44.66969" lon="5.80902">
        <ele>1819.5999755859</ele>
        <time>2021-08-11T08:50:49Z</time>
      </trkpt>
      <trkpt lat="44.66965" lon="5.80886">
        <ele>1821.4000244141</ele>
        <time>2021-08-11T08:51:04Z</time>
      </trkpt>
      <trkpt lat="44.66963" lon="5.80861">
        <ele>1823.4000244141</ele>
        <time>2021-08-11T08:51:30Z</time>
      </trkpt>
      <trkpt lat="44.66955" lon="5.80846">
        <ele>1826.4000244141</ele>
        <time>2021-08-11T08:51:50Z</time>
      </trkpt>
      <trkpt lat="44.66953" lon="5.80829">
        <ele>1829.4000244141</ele>
        <time>2021-08-11T08:52:10Z</time>
      </trkpt>
      <trkpt lat="44.66952" lon="5.80805">
        <ele>1832</ele>
        <time>2021-08-11T08:52:36Z</time>
      </trkpt>
      <trkpt lat="44.6695" lon="5.80783">
        <ele>1835</ele>
        <time>2021-08-11T08:53:01Z</time>
      </trkpt>
      <trkpt lat="44.66954" lon="5.80765">
        <ele>1836.1999511719</ele>
        <time>2021-08-11T08:53:24Z</time>
      </trkpt>
      <trkpt lat="44.66953" lon="5.80743">
        <ele>1838.1999511719</ele>
        <time>2021-08-11T08:53:51Z</time>
      </trkpt>
      <trkpt lat="44.66953" lon="5.80731">
        <ele>1841.1999511719</ele>
        <time>2021-08-11T08:54:13Z</time>
      </trkpt>
      <trkpt lat="44.66949" lon="5.80715">
        <ele>1843.8000488281</ele>
        <time>2021-08-11T08:54:35Z</time>
      </trkpt>
      <trkpt lat="44.66945" lon="5.80695">
        <ele>1846.1999511719</ele>
        <time>2021-08-11T08:54:58Z</time>
      </trkpt>
      <trkpt lat="44.66946" lon="5.80671">
        <ele>1849.1999511719</ele>
        <time>2021-08-11T08:55:25Z</time>
      </trkpt>
      <trkpt lat="44.66944" lon="5.80645">
        <ele>1852</ele>
        <time>2021-08-11T08:55:51Z</time>
      </trkpt>
      <trkpt lat="44.6694" lon="5.80634">
        <ele>1853.5999755859</ele>
        <time>2021-08-11T08:56:13Z</time>
      </trkpt>
      <trkpt lat="44.66943" lon="5.80611">
        <ele>1855.4000244141</ele>
        <time>2021-08-11T08:56:41Z</time>
      </trkpt>
      <trkpt lat="44.66937" lon="5.80596">
        <ele>1858.4000244141</ele>
        <time>2021-08-11T08:57:06Z</time>
      </trkpt>
      <trkpt lat="44.66942" lon="5.80574">
        <ele>1861.1999511719</ele>
        <time>2021-08-11T08:57:32Z</time>
      </trkpt>
      <trkpt lat="44.66944" lon="5.80562">
        <ele>1863.1999511719</ele>
        <time>2021-08-11T08:57:50Z</time>
      </trkpt>
      <trkpt lat="44.6695" lon="5.80546">
        <ele>1865</ele>
        <time>2021-08-11T08:58:12Z</time>
      </trkpt>
      <trkpt lat="44.66952" lon="5.80534">
        <ele>1868.1999511719</ele>
        <time>2021-08-11T08:58:34Z</time>
      </trkpt>
      <trkpt lat="44.66949" lon="5.80519">
        <ele>1871.1999511719</ele>
        <time>2021-08-11T08:58:57Z</time>
      </trkpt>
      <trkpt lat="44.66946" lon="5.80499">
        <ele>1874.1999511719</ele>
        <time>2021-08-11T08:59:18Z</time>
      </trkpt>
      <trkpt lat="44.66946" lon="5.80488">
        <ele>1876.1999511719</ele>
        <time>2021-08-11T08:59:42Z</time>
      </trkpt>
      <trkpt lat="44.6695" lon="5.80466">
        <ele>1878.4000244141</ele>
        <time>2021-08-11T09:00:04Z</time>
      </trkpt>
      <trkpt lat="44.66949" lon="5.80447">
        <ele>1880.4000244141</ele>
        <time>2021-08-11T09:00:28Z</time>
      </trkpt>
      <trkpt lat="44.66945" lon="5.80428">
        <ele>1883.1999511719</ele>
        <time>2021-08-11T09:00:50Z</time>
      </trkpt>
      <trkpt lat="44.66938" lon="5.80406">
        <ele>1886</ele>
        <time>2021-08-11T09:01:14Z</time>
      </trkpt>
      <trkpt lat="44.66936" lon="5.8039">
        <ele>1888.4000244141</ele>
        <time>2021-08-11T09:01:36Z</time>
      </trkpt>
      <trkpt lat="44.66929" lon="5.80374">
        <ele>1891.4000244141</ele>
        <time>2021-08-11T09:01:58Z</time>
      </trkpt>
      <trkpt lat="44.66927" lon="5.80358">
        <ele>1894.4000244141</ele>
        <time>2021-08-11T09:02:18Z</time>
      </trkpt>
      <trkpt lat="44.6693" lon="5.8034">
        <ele>1896.8000488281</ele>
        <time>2021-08-11T09:02:39Z</time>
      </trkpt>
      <trkpt lat="44.66936" lon="5.80322">
        <ele>1899.5999755859</ele>
        <time>2021-08-11T09:03:02Z</time>
      </trkpt>
      <trkpt lat="44.66929" lon="5.80304">
        <ele>1901.5999755859</ele>
        <time>2021-08-11T09:03:25Z</time>
      </trkpt>
      <trkpt lat="44.66927" lon="5.80292">
        <ele>1904.1999511719</ele>
        <time>2021-08-11T09:03:53Z</time>
      </trkpt>
      <trkpt lat="44.66928" lon="5.80277">
        <ele>1906.5999755859</ele>
        <time>2021-08-11T09:04:18Z</time>
      </trkpt>
      <trkpt lat="44.66922" lon="5.80265">
        <ele>1909.5999755859</ele>
        <time>2021-08-11T09:04:39Z</time>
      </trkpt>
      <trkpt lat="44.66921" lon="5.80251">
        <ele>1912.5999755859</ele>
        <time>2021-08-11T09:05:02Z</time>
      </trkpt>
      <trkpt lat="44.66928" lon="5.8025">
        <ele>1913.5999755859</ele>
        <time>2021-08-11T09:05:58Z</time>
      </trkpt>
      <trkpt lat="44.66916" lon="5.80239">
        <ele>1914.8000488281</ele>
        <time>2021-08-11T09:06:26Z</time>
      </trkpt>
      <trkpt lat="44.66915" lon="5.80226">
        <ele>1918</ele>
        <time>2021-08-11T09:06:47Z</time>
      </trkpt>
      <trkpt lat="44.66909" lon="5.80214">
        <ele>1921</ele>
        <time>2021-08-11T09:07:13Z</time>
      </trkpt>
      <trkpt lat="44.66907" lon="5.80202">
        <ele>1924.1999511719</ele>
        <time>2021-08-11T09:07:35Z</time>
      </trkpt>
      <trkpt lat="44.66909" lon="5.8019">
        <ele>1927.1999511719</ele>
        <time>2021-08-11T09:07:57Z</time>
      </trkpt>
      <trkpt lat="44.66913" lon="5.80181">
        <ele>1930.4000244141</ele>
        <time>2021-08-11T09:08:22Z</time>
      </trkpt>
      <trkpt lat="44.6691" lon="5.80172">
        <ele>1932.1999511719</ele>
        <time>2021-08-11T09:08:46Z</time>
      </trkpt>
      <trkpt lat="44.66908" lon="5.80165">
        <ele>1934.5999755859</ele>
        <time>2021-08-11T09:09:06Z</time>
      </trkpt>
      <trkpt lat="44.66905" lon="5.80151">
        <ele>1937.5999755859</ele>
        <time>2021-08-11T09:09:30Z</time>
      </trkpt>
      <trkpt lat="44.66904" lon="5.80144">
        <ele>1940.5999755859</ele>
        <time>2021-08-11T09:09:49Z</time>
      </trkpt>
      <trkpt lat="44.6691" lon="5.80127">
        <ele>1943.1999511719</ele>
        <time>2021-08-11T09:10:13Z</time>
      </trkpt>
      <trkpt lat="44.6691" lon="5.80112">
        <ele>1946.1999511719</ele>
        <time>2021-08-11T09:10:35Z</time>
      </trkpt>
      <trkpt lat="44.66907" lon="5.80096">
        <ele>1949.4000244141</ele>
        <time>2021-08-11T09:10:56Z</time>
      </trkpt>
      <trkpt lat="44.66905" lon="5.80068">
        <ele>1952</ele>
        <time>2021-08-11T09:11:29Z</time>
      </trkpt>
      <trkpt lat="44.66912" lon="5.80057">
        <ele>1951.5999755859</ele>
        <time>2021-08-11T09:11:56Z</time>
      </trkpt>
      <trkpt lat="44.66907" lon="5.80063">
        <ele>1951.1999511719</ele>
        <time>2021-08-11T09:12:49Z</time>
      </trkpt>
      <trkpt lat="44.66898" lon="5.80068">
        <ele>1951.4000244141</ele>
        <time>2021-08-11T09:13:24Z</time>
      </trkpt>
      <trkpt lat="44.66908" lon="5.80065">
        <ele>1951.5999755859</ele>
        <time>2021-08-11T09:13:57Z</time>
      </trkpt>
      <trkpt lat="44.66906" lon="5.80065">
        <ele>1952</ele>
        <time>2021-08-11T09:14:53Z</time>
      </trkpt>
      <trkpt lat="44.66904" lon="5.80065">
        <ele>1952</ele>
        <time>2021-08-11T09:16:08Z</time>
      </trkpt>
      <trkpt lat="44.66907" lon="5.80065">
        <ele>1952.1999511719</ele>
        <time>2021-08-11T09:17:25Z</time>
      </trkpt>
      <trkpt lat="44.66905" lon="5.80065">
        <ele>1952</ele>
        <time>2021-08-11T09:18:02Z</time>
      </trkpt>
      <trkpt lat="44.66903" lon="5.80065">
        <ele>1951.8000488281</ele>
        <time>2021-08-11T09:18:37Z</time>
      </trkpt>
      <trkpt lat="44.66912" lon="5.80063">
        <ele>1951.8000488281</ele>
        <time>2021-08-11T09:19:47Z</time>
      </trkpt>
      <trkpt lat="44.66912" lon="5.80063">
        <ele>1952</ele>
        <time>2021-08-11T09:20:24Z</time>
      </trkpt>
      <trkpt lat="44.66908" lon="5.80064">
        <ele>1952.4000244141</ele>
        <time>2021-08-11T09:21:12Z</time>
      </trkpt>
      <trkpt lat="44.66912" lon="5.80062">
        <ele>1952.5999755859</ele>
        <time>2021-08-11T09:21:34Z</time>
      </trkpt>
      <trkpt lat="44.66909" lon="5.80065">
        <ele>1952.1999511719</ele>
        <time>2021-08-11T09:22:15Z</time>
      </trkpt>
      <trkpt lat="44.66907" lon="5.80063">
        <ele>1952</ele>
        <time>2021-08-11T09:24:26Z</time>
      </trkpt>
      <trkpt lat="44.66912" lon="5.80075">
        <ele>1952.8000488281</ele>
        <time>2021-08-11T09:24:58Z</time>
      </trkpt>
      <trkpt lat="44.66916" lon="5.80094">
        <ele>1953.1999511719</ele>
        <time>2021-08-11T09:25:20Z</time>
      </trkpt>
      <trkpt lat="44.6692" lon="5.80092">
        <ele>1953.4000244141</ele>
        <time>2021-08-11T09:25:48Z</time>
      </trkpt>
      <trkpt lat="44.66921" lon="5.80105">
        <ele>1952.4000244141</ele>
        <time>2021-08-11T09:26:10Z</time>
      </trkpt>
      <trkpt lat="44.66922" lon="5.8012">
        <ele>1949.1999511719</ele>
        <time>2021-08-11T09:26:30Z</time>
      </trkpt>
      <trkpt lat="44.66917" lon="5.80135">
        <ele>1946.1999511719</ele>
        <time>2021-08-11T09:26:51Z</time>
      </trkpt>
      <trkpt lat="44.66915" lon="5.8015">
        <ele>1943</ele>
        <time>2021-08-11T09:27:14Z</time>
      </trkpt>
      <trkpt lat="44.66918" lon="5.80158">
        <ele>1939.8000488281</ele>
        <time>2021-08-11T09:27:37Z</time>
      </trkpt>
      <trkpt lat="44.66922" lon="5.80165">
        <ele>1937.4000244141</ele>
        <time>2021-08-11T09:27:58Z</time>
      </trkpt>
      <trkpt lat="44.66924" lon="5.80177">
        <ele>1934.4000244141</ele>
        <time>2021-08-11T09:28:19Z</time>
      </trkpt>
      <trkpt lat="44.6692" lon="5.80186">
        <ele>1931.1999511719</ele>
        <time>2021-08-11T09:28:39Z</time>
      </trkpt>
      <trkpt lat="44.66921" lon="5.80198">
        <ele>1929</ele>
        <time>2021-08-11T09:29:00Z</time>
      </trkpt>
      <trkpt lat="44.66918" lon="5.80215">
        <ele>1926</ele>
        <time>2021-08-11T09:29:24Z</time>
      </trkpt>
      <trkpt lat="44.6692" lon="5.80226">
        <ele>1922.8000488281</ele>
        <time>2021-08-11T09:29:45Z</time>
      </trkpt>
      <trkpt lat="44.66924" lon="5.80235">
        <ele>1919.8000488281</ele>
        <time>2021-08-11T09:30:07Z</time>
      </trkpt>
      <trkpt lat="44.66927" lon="5.80245">
        <ele>1917</ele>
        <time>2021-08-11T09:30:27Z</time>
      </trkpt>
      <trkpt lat="44.66928" lon="5.80262">
        <ele>1914</ele>
        <time>2021-08-11T09:30:46Z</time>
      </trkpt>
      <trkpt lat="44.66928" lon="5.80276">
        <ele>1911</ele>
        <time>2021-08-11T09:31:02Z</time>
      </trkpt>
      <trkpt lat="44.66932" lon="5.8029">
        <ele>1907.8000488281</ele>
        <time>2021-08-11T09:31:22Z</time>
      </trkpt>
      <trkpt lat="44.66937" lon="5.80303">
        <ele>1904.5999755859</ele>
        <time>2021-08-11T09:31:45Z</time>
      </trkpt>
      <trkpt lat="44.66939" lon="5.80317">
        <ele>1901.8000488281</ele>
        <time>2021-08-11T09:32:06Z</time>
      </trkpt>
      <trkpt lat="44.66937" lon="5.8034">
        <ele>1899</ele>
        <time>2021-08-11T09:32:29Z</time>
      </trkpt>
      <trkpt lat="44.66931" lon="5.80359">
        <ele>1896.1999511719</ele>
        <time>2021-08-11T09:32:48Z</time>
      </trkpt>
      <trkpt lat="44.66934" lon="5.80375">
        <ele>1893.1999511719</ele>
        <time>2021-08-11T09:33:10Z</time>
      </trkpt>
      <trkpt lat="44.66939" lon="5.80394">
        <ele>1890.5999755859</ele>
        <time>2021-08-11T09:33:28Z</time>
      </trkpt>
      <trkpt lat="44.66942" lon="5.80408">
        <ele>1887.5999755859</ele>
        <time>2021-08-11T09:33:47Z</time>
      </trkpt>
      <trkpt lat="44.66946" lon="5.80426">
        <ele>1885.5999755859</ele>
        <time>2021-08-11T09:34:08Z</time>
      </trkpt>
      <trkpt lat="44.66949" lon="5.80444">
        <ele>1882.5999755859</ele>
        <time>2021-08-11T09:34:31Z</time>
      </trkpt>
      <trkpt lat="44.66952" lon="5.80462">
        <ele>1880.4000244141</ele>
        <time>2021-08-11T09:34:52Z</time>
      </trkpt>
      <trkpt lat="44.66949" lon="5.80487">
        <ele>1877.8000488281</ele>
        <time>2021-08-11T09:35:16Z</time>
      </trkpt>
      <trkpt lat="44.66949" lon="5.80511">
        <ele>1875.1999511719</ele>
        <time>2021-08-11T09:35:37Z</time>
      </trkpt>
      <trkpt lat="44.66952" lon="5.80531">
        <ele>1872</ele>
        <time>2021-08-11T09:35:58Z</time>
      </trkpt>
      <trkpt lat="44.66955" lon="5.80543">
        <ele>1869</ele>
        <time>2021-08-11T09:36:17Z</time>
      </trkpt>
      <trkpt lat="44.66957" lon="5.80555">
        <ele>1865.8000488281</ele>
        <time>2021-08-11T09:36:38Z</time>
      </trkpt>
      <trkpt lat="44.66955" lon="5.80574">
        <ele>1863.4000244141</ele>
        <time>2021-08-11T09:36:59Z</time>
      </trkpt>
      <trkpt lat="44.66953" lon="5.80589">
        <ele>1860.8000488281</ele>
        <time>2021-08-11T09:37:22Z</time>
      </trkpt>
      <trkpt lat="44.66953" lon="5.80605">
        <ele>1858.5999755859</ele>
        <time>2021-08-11T09:37:50Z</time>
      </trkpt>
      <trkpt lat="44.66957" lon="5.80621">
        <ele>1856.1999511719</ele>
        <time>2021-08-11T09:38:12Z</time>
      </trkpt>
      <trkpt lat="44.66954" lon="5.80642">
        <ele>1853.5999755859</ele>
        <time>2021-08-11T09:38:35Z</time>
      </trkpt>
      <trkpt lat="44.66956" lon="5.80663">
        <ele>1852.4000244141</ele>
        <time>2021-08-11T09:38:58Z</time>
      </trkpt>
      <trkpt lat="44.66959" lon="5.8068">
        <ele>1849.8000488281</ele>
        <time>2021-08-11T09:39:22Z</time>
      </trkpt>
      <trkpt lat="44.66958" lon="5.80703">
        <ele>1846.8000488281</ele>
        <time>2021-08-11T09:39:45Z</time>
      </trkpt>
      <trkpt lat="44.66961" lon="5.80719">
        <ele>1844.4000244141</ele>
        <time>2021-08-11T09:40:05Z</time>
      </trkpt>
      <trkpt lat="44.66964" lon="5.8073">
        <ele>1842.1999511719</ele>
        <time>2021-08-11T09:40:27Z</time>
      </trkpt>
      <trkpt lat="44.66963" lon="5.80737">
        <ele>1840.1999511719</ele>
        <time>2021-08-11T09:40:45Z</time>
      </trkpt>
      <trkpt lat="44.66968" lon="5.80748">
        <ele>1838.1999511719</ele>
        <time>2021-08-11T09:41:11Z</time>
      </trkpt>
      <trkpt lat="44.66968" lon="5.80765">
        <ele>1836</ele>
        <time>2021-08-11T09:41:35Z</time>
      </trkpt>
      <trkpt lat="44.66968" lon="5.80784">
        <ele>1835</ele>
        <time>2021-08-11T09:41:58Z</time>
      </trkpt>
      <trkpt lat="44.66972" lon="5.80808">
        <ele>1833.4000244141</ele>
        <time>2021-08-11T09:42:19Z</time>
      </trkpt>
      <trkpt lat="44.66973" lon="5.80826">
        <ele>1830.8000488281</ele>
        <time>2021-08-11T09:42:36Z</time>
      </trkpt>
      <trkpt lat="44.66979" lon="5.80845">
        <ele>1829.1999511719</ele>
        <time>2021-08-11T09:42:59Z</time>
      </trkpt>
      <trkpt lat="44.66983" lon="5.80858">
        <ele>1826.1999511719</ele>
        <time>2021-08-11T09:43:14Z</time>
      </trkpt>
      <trkpt lat="44.66984" lon="5.80876">
        <ele>1823</ele>
        <time>2021-08-11T09:43:35Z</time>
      </trkpt>
      <trkpt lat="44.66986" lon="5.80886">
        <ele>1821.4000244141</ele>
        <time>2021-08-11T09:43:59Z</time>
      </trkpt>
      <trkpt lat="44.66984" lon="5.80904">
        <ele>1820.5999755859</ele>
        <time>2021-08-11T09:44:23Z</time>
      </trkpt>
      <trkpt lat="44.66981" lon="5.80924">
        <ele>1819</ele>
        <time>2021-08-11T09:44:42Z</time>
      </trkpt>
      <trkpt lat="44.66983" lon="5.80925">
        <ele>1818.8000488281</ele>
        <time>2021-08-11T09:44:50Z</time>
      </trkpt>
      <trkpt lat="44.66988" lon="5.80927">
        <ele>1818.4000244141</ele>
        <time>2021-08-11T09:45:07Z</time>
      </trkpt>
      <trkpt lat="44.66991" lon="5.80941">
        <ele>1815.5999755859</ele>
        <time>2021-08-11T09:45:25Z</time>
      </trkpt>
      <trkpt lat="44.66999" lon="5.80966">
        <ele>1814.5999755859</ele>
        <time>2021-08-11T09:45:49Z</time>
      </trkpt>
      <trkpt lat="44.66999" lon="5.80971">
        <ele>1813.8000488281</ele>
        <time>2021-08-11T09:46:14Z</time>
      </trkpt>
      <trkpt lat="44.66996" lon="5.80973">
        <ele>1813.8000488281</ele>
        <time>2021-08-11T09:46:16Z</time>
      </trkpt>
      <trkpt lat="44.67001" lon="5.80983">
        <ele>1813.4000244141</ele>
        <time>2021-08-11T09:46:38Z</time>
      </trkpt>
      <trkpt lat="44.67006" lon="5.80983">
        <ele>1813</ele>
        <time>2021-08-11T09:47:15Z</time>
      </trkpt>
      <trkpt lat="44.6701" lon="5.8099">
        <ele>1811.5999755859</ele>
        <time>2021-08-11T09:47:35Z</time>
      </trkpt>
      <trkpt lat="44.67021" lon="5.8099">
        <ele>1811.5999755859</ele>
        <time>2021-08-11T09:47:55Z</time>
      </trkpt>
      <trkpt lat="44.67028" lon="5.80998">
        <ele>1810.8000488281</ele>
        <time>2021-08-11T09:48:06Z</time>
      </trkpt>
      <trkpt lat="44.67046" lon="5.81014">
        <ele>1809.5999755859</ele>
        <time>2021-08-11T09:48:31Z</time>
      </trkpt>
      <trkpt lat="44.67053" lon="5.81025">
        <ele>1809.1999511719</ele>
        <time>2021-08-11T09:48:57Z</time>
      </trkpt>
      <trkpt lat="44.67059" lon="5.81032">
        <ele>1808</ele>
        <time>2021-08-11T09:49:12Z</time>
      </trkpt>
      <trkpt lat="44.67063" lon="5.81047">
        <ele>1807.1999511719</ele>
        <time>2021-08-11T09:49:31Z</time>
      </trkpt>
      <trkpt lat="44.6707" lon="5.81063">
        <ele>1805.5999755859</ele>
        <time>2021-08-11T09:49:49Z</time>
      </trkpt>
      <trkpt lat="44.67067" lon="5.81067">
        <ele>1806.1999511719</ele>
        <time>2021-08-11T09:50:09Z</time>
      </trkpt>
      <trkpt lat="44.67065" lon="5.81069">
        <ele>1806.4000244141</ele>
        <time>2021-08-11T09:50:52Z</time>
      </trkpt>
      <trkpt lat="44.67072" lon="5.81073">
        <ele>1806</ele>
        <time>2021-08-11T09:51:05Z</time>
      </trkpt>
      <trkpt lat="44.6708" lon="5.81086">
        <ele>1803.5999755859</ele>
        <time>2021-08-11T09:51:22Z</time>
      </trkpt>
      <trkpt lat="44.67088" lon="5.81098">
        <ele>1802.1999511719</ele>
        <time>2021-08-11T09:51:42Z</time>
      </trkpt>
      <trkpt lat="44.67089" lon="5.81101">
        <ele>1802.1999511719</ele>
        <time>2021-08-11T09:51:45Z</time>
      </trkpt>
      <trkpt lat="44.67091" lon="5.81106">
        <ele>1802.4000244141</ele>
        <time>2021-08-11T09:51:50Z</time>
      </trkpt>
      <trkpt lat="44.67093" lon="5.81114">
        <ele>1802.4000244141</ele>
        <time>2021-08-11T09:51:58Z</time>
      </trkpt>
      <trkpt lat="44.67094" lon="5.81122">
        <ele>1803.1999511719</ele>
        <time>2021-08-11T09:52:20Z</time>
      </trkpt>
      <trkpt lat="44.67099" lon="5.81133">
        <ele>1803</ele>
        <time>2021-08-11T09:52:42Z</time>
      </trkpt>
      <trkpt lat="44.67099" lon="5.81156">
        <ele>1801.5999755859</ele>
        <time>2021-08-11T09:52:58Z</time>
      </trkpt>
      <trkpt lat="44.67099" lon="5.81183">
        <ele>1801</ele>
        <time>2021-08-11T09:53:16Z</time>
      </trkpt>
      <trkpt lat="44.67099" lon="5.81191">
        <ele>1801</ele>
        <time>2021-08-11T09:53:22Z</time>
      </trkpt>
      <trkpt lat="44.67096" lon="5.81221">
        <ele>1799.8000488281</ele>
        <time>2021-08-11T09:53:41Z</time>
      </trkpt>
      <trkpt lat="44.67097" lon="5.8123">
        <ele>1799</ele>
        <time>2021-08-11T09:53:53Z</time>
      </trkpt>
      <trkpt lat="44.671" lon="5.81237">
        <ele>1799</ele>
        <time>2021-08-11T09:53:58Z</time>
      </trkpt>
      <trkpt lat="44.67103" lon="5.81256">
        <ele>1799.1999511719</ele>
        <time>2021-08-11T09:54:15Z</time>
      </trkpt>
      <trkpt lat="44.67103" lon="5.81258">
        <ele>1799.4000244141</ele>
        <time>2021-08-11T09:54:16Z</time>
      </trkpt>
      <trkpt lat="44.67089" lon="5.81276">
        <ele>1798.5999755859</ele>
        <time>2021-08-11T09:54:36Z</time>
      </trkpt>
      <trkpt lat="44.6708" lon="5.81278">
        <ele>1797.5999755859</ele>
        <time>2021-08-11T09:54:54Z</time>
      </trkpt>
      <trkpt lat="44.6708" lon="5.81283">
        <ele>1796.1999511719</ele>
        <time>2021-08-11T09:55:25Z</time>
      </trkpt>
      <trkpt lat="44.67081" lon="5.81284">
        <ele>1794</ele>
        <time>2021-08-11T09:55:53Z</time>
      </trkpt>
      <trkpt lat="44.6708" lon="5.81285">
        <ele>1794.1999511719</ele>
        <time>2021-08-11T09:56:49Z</time>
      </trkpt>
      <trkpt lat="44.67081" lon="5.81281">
        <ele>1794.4000244141</ele>
        <time>2021-08-11T09:57:28Z</time>
      </trkpt>
      <trkpt lat="44.6708" lon="5.8128">
        <ele>1794</ele>
        <time>2021-08-11T09:58:27Z</time>
      </trkpt>
      <trkpt lat="44.6708" lon="5.8128">
        <ele>1794.1999511719</ele>
        <time>2021-08-11T09:59:06Z</time>
      </trkpt>
      <trkpt lat="44.67081" lon="5.81284">
        <ele>1794</ele>
        <time>2021-08-11T10:00:07Z</time>
      </trkpt>
      <trkpt lat="44.67081" lon="5.81282">
        <ele>1793.5999755859</ele>
        <time>2021-08-11T10:01:11Z</time>
      </trkpt>
      <trkpt lat="44.67081" lon="5.81281">
        <ele>1793.5999755859</ele>
        <time>2021-08-11T10:01:54Z</time>
      </trkpt>
      <trkpt lat="44.67079" lon="5.81281">
        <ele>1793.4000244141</ele>
        <time>2021-08-11T10:02:37Z</time>
      </trkpt>
      <trkpt lat="44.67082" lon="5.81283">
        <ele>1793.4000244141</ele>
        <time>2021-08-11T10:03:28Z</time>
      </trkpt>
      <trkpt lat="44.67081" lon="5.81282">
        <ele>1793.4000244141</ele>
        <time>2021-08-11T10:04:19Z</time>
      </trkpt>
      <trkpt lat="44.67078" lon="5.81284">
        <ele>1793.5999755859</ele>
        <time>2021-08-11T10:05:03Z</time>
      </trkpt>
      <trkpt lat="44.6708" lon="5.81283">
        <ele>1793.8000488281</ele>
        <time>2021-08-11T10:05:49Z</time>
      </trkpt>
      <trkpt lat="44.6708" lon="5.81284">
        <ele>1793.8000488281</ele>
        <time>2021-08-11T10:06:15Z</time>
      </trkpt>
      <trkpt lat="44.6708" lon="5.81284">
        <ele>1793.5999755859</ele>
        <time>2021-08-11T10:09:35Z</time>
      </trkpt>
      <trkpt lat="44.67079" lon="5.81284">
        <ele>1793</ele>
        <time>2021-08-11T10:13:33Z</time>
      </trkpt>
      <trkpt lat="44.67078" lon="5.81284">
        <ele>1792.8000488281</ele>
        <time>2021-08-11T10:18:15Z</time>
      </trkpt>
      <trkpt lat="44.67078" lon="5.81283">
        <ele>1793.4000244141</ele>
        <time>2021-08-11T10:20:40Z</time>
      </trkpt>
      <trkpt lat="44.67076" lon="5.81282">
        <ele>1792.8000488281</ele>
        <time>2021-08-11T10:25:24Z</time>
      </trkpt>
      <trkpt lat="44.67077" lon="5.81283">
        <ele>1792.4000244141</ele>
        <time>2021-08-11T10:30:13Z</time>
      </trkpt>
      <trkpt lat="44.67077" lon="5.81282">
        <ele>1792.1999511719</ele>
        <time>2021-08-11T10:30:40Z</time>
      </trkpt>
      <trkpt lat="44.67077" lon="5.81283">
        <ele>1792.1999511719</ele>
        <time>2021-08-11T10:33:31Z</time>
      </trkpt>
      <trkpt lat="44.67077" lon="5.81282">
        <ele>1791.5999755859</ele>
        <time>2021-08-11T10:41:23Z</time>
      </trkpt>
      <trkpt lat="44.67078" lon="5.81281">
        <ele>1791.1999511719</ele>
        <time>2021-08-11T10:48:53Z</time>
      </trkpt>
      <trkpt lat="44.67078" lon="5.81281">
        <ele>1792</ele>
        <time>2021-08-11T10:56:28Z</time>
      </trkpt>
      <trkpt lat="44.67078" lon="5.81275">
        <ele>1792</ele>
        <time>2021-08-11T10:57:03Z</time>
      </trkpt>
      <trkpt lat="44.67082" lon="5.81283">
        <ele>1792.5999755859</ele>
        <time>2021-08-11T10:57:25Z</time>
      </trkpt>
      <trkpt lat="44.67093" lon="5.81275">
        <ele>1794.4000244141</ele>
        <time>2021-08-11T10:57:49Z</time>
      </trkpt>
      <trkpt lat="44.67103" lon="5.81289">
        <ele>1794.8000488281</ele>
        <time>2021-08-11T10:58:11Z</time>
      </trkpt>
      <trkpt lat="44.67099" lon="5.81311">
        <ele>1794.5999755859</ele>
        <time>2021-08-11T10:58:33Z</time>
      </trkpt>
      <trkpt lat="44.671" lon="5.81339">
        <ele>1793</ele>
        <time>2021-08-11T10:58:58Z</time>
      </trkpt>
      <trkpt lat="44.67103" lon="5.8135">
        <ele>1791.1999511719</ele>
        <time>2021-08-11T10:59:16Z</time>
      </trkpt>
      <trkpt lat="44.671" lon="5.81371">
        <ele>1792</ele>
        <time>2021-08-11T10:59:37Z</time>
      </trkpt>
      <trkpt lat="44.671" lon="5.81372">
        <ele>1792</ele>
        <time>2021-08-11T10:59:38Z</time>
      </trkpt>
      <trkpt lat="44.67096" lon="5.81383">
        <ele>1791.8000488281</ele>
        <time>2021-08-11T10:59:45Z</time>
      </trkpt>
      <trkpt lat="44.67089" lon="5.81399">
        <ele>1791.1999511719</ele>
        <time>2021-08-11T11:00:01Z</time>
      </trkpt>
      <trkpt lat="44.67088" lon="5.8143">
        <ele>1789.4000244141</ele>
        <time>2021-08-11T11:00:24Z</time>
      </trkpt>
      <trkpt lat="44.67085" lon="5.81451">
        <ele>1788.8000488281</ele>
        <time>2021-08-11T11:00:44Z</time>
      </trkpt>
      <trkpt lat="44.67085" lon="5.81466">
        <ele>1788.4000244141</ele>
        <time>2021-08-11T11:01:00Z</time>
      </trkpt>
      <trkpt lat="44.67081" lon="5.81477">
        <ele>1788.1999511719</ele>
        <time>2021-08-11T11:01:11Z</time>
      </trkpt>
      <trkpt lat="44.67077" lon="5.81504">
        <ele>1787.4000244141</ele>
        <time>2021-08-11T11:01:33Z</time>
      </trkpt>
      <trkpt lat="44.67075" lon="5.81512">
        <ele>1787.4000244141</ele>
        <time>2021-08-11T11:01:48Z</time>
      </trkpt>
      <trkpt lat="44.67074" lon="5.81527">
        <ele>1787.4000244141</ele>
        <time>2021-08-11T11:02:01Z</time>
      </trkpt>
      <trkpt lat="44.67075" lon="5.81556">
        <ele>1787</ele>
        <time>2021-08-11T11:02:24Z</time>
      </trkpt>
      <trkpt lat="44.67075" lon="5.81579">
        <ele>1786.8000488281</ele>
        <time>2021-08-11T11:02:41Z</time>
      </trkpt>
      <trkpt lat="44.6708" lon="5.816">
        <ele>1785.5999755859</ele>
        <time>2021-08-11T11:03:01Z</time>
      </trkpt>
      <trkpt lat="44.67084" lon="5.81626">
        <ele>1784.8000488281</ele>
        <time>2021-08-11T11:03:18Z</time>
      </trkpt>
      <trkpt lat="44.67085" lon="5.81643">
        <ele>1784.5999755859</ele>
        <time>2021-08-11T11:03:29Z</time>
      </trkpt>
      <trkpt lat="44.67088" lon="5.81663">
        <ele>1783.5999755859</ele>
        <time>2021-08-11T11:03:45Z</time>
      </trkpt>
      <trkpt lat="44.67088" lon="5.81667">
        <ele>1783.5999755859</ele>
        <time>2021-08-11T11:03:48Z</time>
      </trkpt>
      <trkpt lat="44.67091" lon="5.81693">
        <ele>1782.4000244141</ele>
        <time>2021-08-11T11:04:07Z</time>
      </trkpt>
      <trkpt lat="44.67092" lon="5.81717">
        <ele>1781.4000244141</ele>
        <time>2021-08-11T11:04:24Z</time>
      </trkpt>
      <trkpt lat="44.67095" lon="5.81746">
        <ele>1781</ele>
        <time>2021-08-11T11:04:43Z</time>
      </trkpt>
      <trkpt lat="44.67097" lon="5.81764">
        <ele>1780.4000244141</ele>
        <time>2021-08-11T11:04:58Z</time>
      </trkpt>
      <trkpt lat="44.67099" lon="5.81789">
        <ele>1779.8000488281</ele>
        <time>2021-08-11T11:05:16Z</time>
      </trkpt>
      <trkpt lat="44.67099" lon="5.81798">
        <ele>1779.4000244141</ele>
        <time>2021-08-11T11:05:21Z</time>
      </trkpt>
      <trkpt lat="44.67102" lon="5.81816">
        <ele>1778.5999755859</ele>
        <time>2021-08-11T11:05:39Z</time>
      </trkpt>
      <trkpt lat="44.67101" lon="5.81824">
        <ele>1777.8000488281</ele>
        <time>2021-08-11T11:05:46Z</time>
      </trkpt>
      <trkpt lat="44.67101" lon="5.81829">
        <ele>1777.1999511719</ele>
        <time>2021-08-11T11:05:50Z</time>
      </trkpt>
      <trkpt lat="44.67097" lon="5.81839">
        <ele>1776.5999755859</ele>
        <time>2021-08-11T11:06:00Z</time>
      </trkpt>
      <trkpt lat="44.67095" lon="5.81853">
        <ele>1776.1999511719</ele>
        <time>2021-08-11T11:06:12Z</time>
      </trkpt>
      <trkpt lat="44.67089" lon="5.81871">
        <ele>1775.1999511719</ele>
        <time>2021-08-11T11:06:26Z</time>
      </trkpt>
      <trkpt lat="44.67087" lon="5.81889">
        <ele>1774.1999511719</ele>
        <time>2021-08-11T11:06:45Z</time>
      </trkpt>
      <trkpt lat="44.6709" lon="5.81912">
        <ele>1774</ele>
        <time>2021-08-11T11:07:03Z</time>
      </trkpt>
      <trkpt lat="44.67092" lon="5.81927">
        <ele>1773.1999511719</ele>
        <time>2021-08-11T11:07:19Z</time>
      </trkpt>
      <trkpt lat="44.67093" lon="5.8193">
        <ele>1773.1999511719</ele>
        <time>2021-08-11T11:07:22Z</time>
      </trkpt>
      <trkpt lat="44.67095" lon="5.81936">
        <ele>1773.1999511719</ele>
        <time>2021-08-11T11:07:26Z</time>
      </trkpt>
      <trkpt lat="44.67103" lon="5.81972">
        <ele>1773</ele>
        <time>2021-08-11T11:07:53Z</time>
      </trkpt>
      <trkpt lat="44.671" lon="5.81978">
        <ele>1774</ele>
        <time>2021-08-11T11:08:22Z</time>
      </trkpt>
      <trkpt lat="44.67099" lon="5.81982">
        <ele>1774</ele>
        <time>2021-08-11T11:08:50Z</time>
      </trkpt>
      <trkpt lat="44.67104" lon="5.81994">
        <ele>1774.1999511719</ele>
        <time>2021-08-11T11:09:03Z</time>
      </trkpt>
      <trkpt lat="44.67109" lon="5.82016">
        <ele>1774.1999511719</ele>
        <time>2021-08-11T11:09:21Z</time>
      </trkpt>
      <trkpt lat="44.67109" lon="5.82022">
        <ele>1773.8000488281</ele>
        <time>2021-08-11T11:09:25Z</time>
      </trkpt>
      <trkpt lat="44.67113" lon="5.82035">
        <ele>1773.5999755859</ele>
        <time>2021-08-11T11:09:37Z</time>
      </trkpt>
      <trkpt lat="44.67117" lon="5.82059">
        <ele>1773.1999511719</ele>
        <time>2021-08-11T11:09:54Z</time>
      </trkpt>
      <trkpt lat="44.6712" lon="5.82083">
        <ele>1772.5999755859</ele>
        <time>2021-08-11T11:10:11Z</time>
      </trkpt>
      <trkpt lat="44.67124" lon="5.82109">
        <ele>1772</ele>
        <time>2021-08-11T11:10:28Z</time>
      </trkpt>
      <trkpt lat="44.67126" lon="5.82115">
        <ele>1771.8000488281</ele>
        <time>2021-08-11T11:10:33Z</time>
      </trkpt>
      <trkpt lat="44.67127" lon="5.82117">
        <ele>1771.5999755859</ele>
        <time>2021-08-11T11:10:35Z</time>
      </trkpt>
      <trkpt lat="44.67136" lon="5.82145">
        <ele>1770.5999755859</ele>
        <time>2021-08-11T11:10:55Z</time>
      </trkpt>
      <trkpt lat="44.67139" lon="5.82151">
        <ele>1770.4000244141</ele>
        <time>2021-08-11T11:11:00Z</time>
      </trkpt>
      <trkpt lat="44.67144" lon="5.82162">
        <ele>1770</ele>
        <time>2021-08-11T11:11:09Z</time>
      </trkpt>
      <trkpt lat="44.67146" lon="5.82165">
        <ele>1769.8000488281</ele>
        <time>2021-08-11T11:11:11Z</time>
      </trkpt>
      <trkpt lat="44.67147" lon="5.82172">
        <ele>1769.5999755859</ele>
        <time>2021-08-11T11:11:16Z</time>
      </trkpt>
      <trkpt lat="44.67148" lon="5.82181">
        <ele>1769.4000244141</ele>
        <time>2021-08-11T11:11:22Z</time>
      </trkpt>
      <trkpt lat="44.6715" lon="5.8219">
        <ele>1769.1999511719</ele>
        <time>2021-08-11T11:11:30Z</time>
      </trkpt>
      <trkpt lat="44.67151" lon="5.82196">
        <ele>1769</ele>
        <time>2021-08-11T11:11:34Z</time>
      </trkpt>
      <trkpt lat="44.67151" lon="5.82221">
        <ele>1768.4000244141</ele>
        <time>2021-08-11T11:11:51Z</time>
      </trkpt>
      <trkpt lat="44.67151" lon="5.82226">
        <ele>1768.4000244141</ele>
        <time>2021-08-11T11:11:54Z</time>
      </trkpt>
      <trkpt lat="44.67153" lon="5.8224">
        <ele>1768</ele>
        <time>2021-08-11T11:12:02Z</time>
      </trkpt>
      <trkpt lat="44.67157" lon="5.82262">
        <ele>1767</ele>
        <time>2021-08-11T11:12:19Z</time>
      </trkpt>
      <trkpt lat="44.67157" lon="5.82265">
        <ele>1766.8000488281</ele>
        <time>2021-08-11T11:12:22Z</time>
      </trkpt>
      <trkpt lat="44.67154" lon="5.82287">
        <ele>1767</ele>
        <time>2021-08-11T11:12:41Z</time>
      </trkpt>
      <trkpt lat="44.6715" lon="5.8231">
        <ele>1766.8000488281</ele>
        <time>2021-08-11T11:13:01Z</time>
      </trkpt>
      <trkpt lat="44.67143" lon="5.82333">
        <ele>1765.8000488281</ele>
        <time>2021-08-11T11:13:21Z</time>
      </trkpt>
      <trkpt lat="44.67131" lon="5.82363">
        <ele>1764.4000244141</ele>
        <time>2021-08-11T11:13:46Z</time>
      </trkpt>
      <trkpt lat="44.67117" lon="5.82386">
        <ele>1763.1999511719</ele>
        <time>2021-08-11T11:14:10Z</time>
      </trkpt>
      <trkpt lat="44.67109" lon="5.82394">
        <ele>1763</ele>
        <time>2021-08-11T11:14:18Z</time>
      </trkpt>
      <trkpt lat="44.67097" lon="5.82415">
        <ele>1762.1999511719</ele>
        <time>2021-08-11T11:14:40Z</time>
      </trkpt>
      <trkpt lat="44.67089" lon="5.82428">
        <ele>1762</ele>
        <time>2021-08-11T11:14:57Z</time>
      </trkpt>
      <trkpt lat="44.67086" lon="5.82439">
        <ele>1762.1999511719</ele>
        <time>2021-08-11T11:15:18Z</time>
      </trkpt>
      <trkpt lat="44.6708" lon="5.8245">
        <ele>1761.8000488281</ele>
        <time>2021-08-11T11:15:39Z</time>
      </trkpt>
      <trkpt lat="44.67069" lon="5.82457">
        <ele>1761.5999755859</ele>
        <time>2021-08-11T11:16:02Z</time>
      </trkpt>
      <trkpt lat="44.6706" lon="5.82464">
        <ele>1761.4000244141</ele>
        <time>2021-08-11T11:16:19Z</time>
      </trkpt>
      <trkpt lat="44.67052" lon="5.82476">
        <ele>1761.4000244141</ele>
        <time>2021-08-11T11:16:36Z</time>
      </trkpt>
      <trkpt lat="44.67048" lon="5.82482">
        <ele>1761.4000244141</ele>
        <time>2021-08-11T11:16:54Z</time>
      </trkpt>
      <trkpt lat="44.67046" lon="5.82484">
        <ele>1761.1999511719</ele>
        <time>2021-08-11T11:17:06Z</time>
      </trkpt>
      <trkpt lat="44.6705" lon="5.82482">
        <ele>1761</ele>
        <time>2021-08-11T11:17:30Z</time>
      </trkpt>
      <trkpt lat="44.67048" lon="5.82485">
        <ele>1761.1999511719</ele>
        <time>2021-08-11T11:18:29Z</time>
      </trkpt>
      <trkpt lat="44.67047" lon="5.82488">
        <ele>1761.1999511719</ele>
        <time>2021-08-11T11:19:09Z</time>
      </trkpt>
      <trkpt lat="44.67044" lon="5.82503">
        <ele>1761</ele>
        <time>2021-08-11T11:19:27Z</time>
      </trkpt>
      <trkpt lat="44.67034" lon="5.82506">
        <ele>1760.1999511719</ele>
        <time>2021-08-11T11:19:45Z</time>
      </trkpt>
      <trkpt lat="44.67028" lon="5.82509">
        <ele>1760</ele>
        <time>2021-08-11T11:19:54Z</time>
      </trkpt>
      <trkpt lat="44.67012" lon="5.82517">
        <ele>1760.4000244141</ele>
        <time>2021-08-11T11:20:12Z</time>
      </trkpt>
      <trkpt lat="44.67003" lon="5.82518">
        <ele>1760.4000244141</ele>
        <time>2021-08-11T11:20:20Z</time>
      </trkpt>
      <trkpt lat="44.66995" lon="5.82517">
        <ele>1761.4000244141</ele>
        <time>2021-08-11T11:20:39Z</time>
      </trkpt>
      <trkpt lat="44.66978" lon="5.82516">
        <ele>1764.1999511719</ele>
        <time>2021-08-11T11:21:09Z</time>
      </trkpt>
      <trkpt lat="44.66961" lon="5.82512">
        <ele>1765.8000488281</ele>
        <time>2021-08-11T11:21:34Z</time>
      </trkpt>
      <trkpt lat="44.66947" lon="5.82513">
        <ele>1767.8000488281</ele>
        <time>2021-08-11T11:21:58Z</time>
      </trkpt>
      <trkpt lat="44.66933" lon="5.82517">
        <ele>1770.1999511719</ele>
        <time>2021-08-11T11:22:23Z</time>
      </trkpt>
      <trkpt lat="44.66926" lon="5.82516">
        <ele>1772.4000244141</ele>
        <time>2021-08-11T11:22:45Z</time>
      </trkpt>
      <trkpt lat="44.66911" lon="5.82518">
        <ele>1774.4000244141</ele>
        <time>2021-08-11T11:23:07Z</time>
      </trkpt>
      <trkpt lat="44.66895" lon="5.82519">
        <ele>1775.8000488281</ele>
        <time>2021-08-11T11:23:28Z</time>
      </trkpt>
      <trkpt lat="44.66877" lon="5.82523">
        <ele>1777.4000244141</ele>
        <time>2021-08-11T11:23:53Z</time>
      </trkpt>
      <trkpt lat="44.66862" lon="5.8253">
        <ele>1779.5999755859</ele>
        <time>2021-08-11T11:24:19Z</time>
      </trkpt>
      <trkpt lat="44.66855" lon="5.82531">
        <ele>1782.8000488281</ele>
        <time>2021-08-11T11:24:40Z</time>
      </trkpt>
      <trkpt lat="44.66843" lon="5.82537">
        <ele>1785.1999511719</ele>
        <time>2021-08-11T11:25:06Z</time>
      </trkpt>
      <trkpt lat="44.66835" lon="5.8254">
        <ele>1788.1999511719</ele>
        <time>2021-08-11T11:25:27Z</time>
      </trkpt>
      <trkpt lat="44.66829" lon="5.82539">
        <ele>1790.8000488281</ele>
        <time>2021-08-11T11:26:01Z</time>
      </trkpt>
      <trkpt lat="44.66817" lon="5.82541">
        <ele>1794</ele>
        <time>2021-08-11T11:26:27Z</time>
      </trkpt>
      <trkpt lat="44.66808" lon="5.8254">
        <ele>1797</ele>
        <time>2021-08-11T11:26:45Z</time>
      </trkpt>
      <trkpt lat="44.66798" lon="5.82538">
        <ele>1800</ele>
        <time>2021-08-11T11:27:06Z</time>
      </trkpt>
      <trkpt lat="44.66791" lon="5.82537">
        <ele>1803.1999511719</ele>
        <time>2021-08-11T11:27:28Z</time>
      </trkpt>
      <trkpt lat="44.66783" lon="5.82536">
        <ele>1804</ele>
        <time>2021-08-11T11:27:53Z</time>
      </trkpt>
      <trkpt lat="44.66771" lon="5.82534">
        <ele>1807</ele>
        <time>2021-08-11T11:28:15Z</time>
      </trkpt>
      <trkpt lat="44.66763" lon="5.82533">
        <ele>1810.1999511719</ele>
        <time>2021-08-11T11:28:37Z</time>
      </trkpt>
      <trkpt lat="44.66752" lon="5.82524">
        <ele>1813.1999511719</ele>
        <time>2021-08-11T11:28:57Z</time>
      </trkpt>
      <trkpt lat="44.66744" lon="5.82522">
        <ele>1816</ele>
        <time>2021-08-11T11:29:22Z</time>
      </trkpt>
      <trkpt lat="44.6673" lon="5.82521">
        <ele>1817.4000244141</ele>
        <time>2021-08-11T11:29:43Z</time>
      </trkpt>
      <trkpt lat="44.66717" lon="5.82522">
        <ele>1819.4000244141</ele>
        <time>2021-08-11T11:30:04Z</time>
      </trkpt>
      <trkpt lat="44.66709" lon="5.82526">
        <ele>1822.5999755859</ele>
        <time>2021-08-11T11:30:26Z</time>
      </trkpt>
      <trkpt lat="44.66702" lon="5.82525">
        <ele>1825.1999511719</ele>
        <time>2021-08-11T11:30:48Z</time>
      </trkpt>
      <trkpt lat="44.66698" lon="5.82526">
        <ele>1827.5999755859</ele>
        <time>2021-08-11T11:31:11Z</time>
      </trkpt>
      <trkpt lat="44.66699" lon="5.82526">
        <ele>1827.4000244141</ele>
        <time>2021-08-11T11:31:42Z</time>
      </trkpt>
      <trkpt lat="44.66694" lon="5.82529">
        <ele>1828</ele>
        <time>2021-08-11T11:32:15Z</time>
      </trkpt>
      <trkpt lat="44.66685" lon="5.82535">
        <ele>1831</ele>
        <time>2021-08-11T11:32:39Z</time>
      </trkpt>
      <trkpt lat="44.66677" lon="5.82543">
        <ele>1834</ele>
        <time>2021-08-11T11:32:58Z</time>
      </trkpt>
      <trkpt lat="44.66668" lon="5.8255">
        <ele>1837.1999511719</ele>
        <time>2021-08-11T11:33:21Z</time>
      </trkpt>
      <trkpt lat="44.6666" lon="5.82553">
        <ele>1839.5999755859</ele>
        <time>2021-08-11T11:33:48Z</time>
      </trkpt>
      <trkpt lat="44.66655" lon="5.8257">
        <ele>1842.8000488281</ele>
        <time>2021-08-11T11:34:13Z</time>
      </trkpt>
      <trkpt lat="44.66651" lon="5.82578">
        <ele>1845.8000488281</ele>
        <time>2021-08-11T11:34:31Z</time>
      </trkpt>
      <trkpt lat="44.66641" lon="5.82583">
        <ele>1848.8000488281</ele>
        <time>2021-08-11T11:34:53Z</time>
      </trkpt>
      <trkpt lat="44.66636" lon="5.82582">
        <ele>1852</ele>
        <time>2021-08-11T11:35:12Z</time>
      </trkpt>
      <trkpt lat="44.66629" lon="5.82587">
        <ele>1855</ele>
        <time>2021-08-11T11:35:32Z</time>
      </trkpt>
      <trkpt lat="44.66625" lon="5.82592">
        <ele>1858.1999511719</ele>
        <time>2021-08-11T11:35:54Z</time>
      </trkpt>
      <trkpt lat="44.66616" lon="5.82591">
        <ele>1861.1999511719</ele>
        <time>2021-08-11T11:36:21Z</time>
      </trkpt>
      <trkpt lat="44.66611" lon="5.82604">
        <ele>1864.1999511719</ele>
        <time>2021-08-11T11:36:42Z</time>
      </trkpt>
      <trkpt lat="44.66607" lon="5.82611">
        <ele>1867.1999511719</ele>
        <time>2021-08-11T11:37:00Z</time>
      </trkpt>
      <trkpt lat="44.66598" lon="5.82619">
        <ele>1870</ele>
        <time>2021-08-11T11:37:24Z</time>
      </trkpt>
      <trkpt lat="44.66596" lon="5.82621">
        <ele>1872.8000488281</ele>
        <time>2021-08-11T11:37:48Z</time>
      </trkpt>
      <trkpt lat="44.66589" lon="5.82626">
        <ele>1873.8000488281</ele>
        <time>2021-08-11T11:38:12Z</time>
      </trkpt>
      <trkpt lat="44.66583" lon="5.82638">
        <ele>1877.1999511719</ele>
        <time>2021-08-11T11:38:33Z</time>
      </trkpt>
      <trkpt lat="44.66576" lon="5.82645">
        <ele>1880.1999511719</ele>
        <time>2021-08-11T11:38:53Z</time>
      </trkpt>
      <trkpt lat="44.66569" lon="5.82652">
        <ele>1883.1999511719</ele>
        <time>2021-08-11T11:39:14Z</time>
      </trkpt>
      <trkpt lat="44.66564" lon="5.8266">
        <ele>1886.4000244141</ele>
        <time>2021-08-11T11:39:34Z</time>
      </trkpt>
      <trkpt lat="44.66561" lon="5.82668">
        <ele>1889.1999511719</ele>
        <time>2021-08-11T11:39:58Z</time>
      </trkpt>
      <trkpt lat="44.66556" lon="5.82677">
        <ele>1892.1999511719</ele>
        <time>2021-08-11T11:40:21Z</time>
      </trkpt>
      <trkpt lat="44.66558" lon="5.82674">
        <ele>1894.4000244141</ele>
        <time>2021-08-11T11:41:10Z</time>
      </trkpt>
      <trkpt lat="44.66555" lon="5.82678">
        <ele>1894.8000488281</ele>
        <time>2021-08-11T11:41:51Z</time>
      </trkpt>
      <trkpt lat="44.66554" lon="5.82677">
        <ele>1894.5999755859</ele>
        <time>2021-08-11T11:42:45Z</time>
      </trkpt>
      <trkpt lat="44.66552" lon="5.82684">
        <ele>1896.4000244141</ele>
        <time>2021-08-11T11:43:07Z</time>
      </trkpt>
      <trkpt lat="44.66552" lon="5.82687">
        <ele>1896</ele>
        <time>2021-08-11T11:44:02Z</time>
      </trkpt>
      <trkpt lat="44.6655" lon="5.82708">
        <ele>1893.1999511719</ele>
        <time>2021-08-11T11:44:26Z</time>
      </trkpt>
      <trkpt lat="44.66549" lon="5.82725">
        <ele>1891.8000488281</ele>
        <time>2021-08-11T11:44:50Z</time>
      </trkpt>
      <trkpt lat="44.66549" lon="5.82743">
        <ele>1888.8000488281</ele>
        <time>2021-08-11T11:45:08Z</time>
      </trkpt>
      <trkpt lat="44.66552" lon="5.82752">
        <ele>1887</ele>
        <time>2021-08-11T11:45:15Z</time>
      </trkpt>
      <trkpt lat="44.66552" lon="5.82762">
        <ele>1883.5999755859</ele>
        <time>2021-08-11T11:45:25Z</time>
      </trkpt>
      <trkpt lat="44.66555" lon="5.82772">
        <ele>1881.8000488281</ele>
        <time>2021-08-11T11:45:49Z</time>
      </trkpt>
      <trkpt lat="44.66561" lon="5.82786">
        <ele>1878.5999755859</ele>
        <time>2021-08-11T11:46:04Z</time>
      </trkpt>
      <trkpt lat="44.66566" lon="5.82803">
        <ele>1875.5999755859</ele>
        <time>2021-08-11T11:46:20Z</time>
      </trkpt>
      <trkpt lat="44.66574" lon="5.82827">
        <ele>1872.8000488281</ele>
        <time>2021-08-11T11:46:42Z</time>
      </trkpt>
      <trkpt lat="44.66588" lon="5.8285">
        <ele>1871.8000488281</ele>
        <time>2021-08-11T11:47:09Z</time>
      </trkpt>
      <trkpt lat="44.66591" lon="5.82851">
        <ele>1871.4000244141</ele>
        <time>2021-08-11T11:47:13Z</time>
      </trkpt>
      <trkpt lat="44.66598" lon="5.82869">
        <ele>1869</ele>
        <time>2021-08-11T11:47:38Z</time>
      </trkpt>
      <trkpt lat="44.66595" lon="5.82866">
        <ele>1866.5999755859</ele>
        <time>2021-08-11T11:48:04Z</time>
      </trkpt>
      <trkpt lat="44.66586" lon="5.82863">
        <ele>1865</ele>
        <time>2021-08-11T11:48:22Z</time>
      </trkpt>
      <trkpt lat="44.66575" lon="5.82878">
        <ele>1862.1999511719</ele>
        <time>2021-08-11T11:48:48Z</time>
      </trkpt>
      <trkpt lat="44.66565" lon="5.82889">
        <ele>1859</ele>
        <time>2021-08-11T11:49:08Z</time>
      </trkpt>
      <trkpt lat="44.66555" lon="5.82903">
        <ele>1857.4000244141</ele>
        <time>2021-08-11T11:49:22Z</time>
      </trkpt>
      <trkpt lat="44.66549" lon="5.82916">
        <ele>1855.4000244141</ele>
        <time>2021-08-11T11:49:42Z</time>
      </trkpt>
      <trkpt lat="44.6655" lon="5.82929">
        <ele>1852.1999511719</ele>
        <time>2021-08-11T11:50:02Z</time>
      </trkpt>
      <trkpt lat="44.66539" lon="5.82935">
        <ele>1849.8000488281</ele>
        <time>2021-08-11T11:50:22Z</time>
      </trkpt>
      <trkpt lat="44.66527" lon="5.82946">
        <ele>1846.8000488281</ele>
        <time>2021-08-11T11:50:42Z</time>
      </trkpt>
      <trkpt lat="44.66516" lon="5.82954">
        <ele>1843.8000488281</ele>
        <time>2021-08-11T11:50:58Z</time>
      </trkpt>
      <trkpt lat="44.66504" lon="5.82973">
        <ele>1842.5999755859</ele>
        <time>2021-08-11T11:51:23Z</time>
      </trkpt>
      <trkpt lat="44.66499" lon="5.82984">
        <ele>1840</ele>
        <time>2021-08-11T11:51:47Z</time>
      </trkpt>
      <trkpt lat="44.66488" lon="5.82997">
        <ele>1837</ele>
        <time>2021-08-11T11:52:02Z</time>
      </trkpt>
      <trkpt lat="44.66478" lon="5.83002">
        <ele>1834</ele>
        <time>2021-08-11T11:52:20Z</time>
      </trkpt>
      <trkpt lat="44.66467" lon="5.83008">
        <ele>1830.8000488281</ele>
        <time>2021-08-11T11:52:38Z</time>
      </trkpt>
      <trkpt lat="44.66467" lon="5.83028">
        <ele>1827.5999755859</ele>
        <time>2021-08-11T11:52:56Z</time>
      </trkpt>
      <trkpt lat="44.66473" lon="5.83039">
        <ele>1824.4000244141</ele>
        <time>2021-08-11T11:53:13Z</time>
      </trkpt>
      <trkpt lat="44.66477" lon="5.83051">
        <ele>1821.1999511719</ele>
        <time>2021-08-11T11:53:30Z</time>
      </trkpt>
      <trkpt lat="44.6648" lon="5.83061">
        <ele>1818.1999511719</ele>
        <time>2021-08-11T11:53:46Z</time>
      </trkpt>
      <trkpt lat="44.66482" lon="5.83068">
        <ele>1815.1999511719</ele>
        <time>2021-08-11T11:54:00Z</time>
      </trkpt>
      <trkpt lat="44.66483" lon="5.83078">
        <ele>1812</ele>
        <time>2021-08-11T11:54:14Z</time>
      </trkpt>
      <trkpt lat="44.66481" lon="5.83091">
        <ele>1809</ele>
        <time>2021-08-11T11:54:29Z</time>
      </trkpt>
      <trkpt lat="44.66474" lon="5.83095">
        <ele>1805.8000488281</ele>
        <time>2021-08-11T11:54:49Z</time>
      </trkpt>
      <trkpt lat="44.66467" lon="5.83099">
        <ele>1802.8000488281</ele>
        <time>2021-08-11T11:55:08Z</time>
      </trkpt>
      <trkpt lat="44.66463" lon="5.83107">
        <ele>1799.5999755859</ele>
        <time>2021-08-11T11:55:20Z</time>
      </trkpt>
      <trkpt lat="44.66464" lon="5.83119">
        <ele>1796.5999755859</ele>
        <time>2021-08-11T11:55:37Z</time>
      </trkpt>
      <trkpt lat="44.6646" lon="5.83133">
        <ele>1793.4000244141</ele>
        <time>2021-08-11T11:55:55Z</time>
      </trkpt>
      <trkpt lat="44.66457" lon="5.83149">
        <ele>1790.4000244141</ele>
        <time>2021-08-11T11:56:14Z</time>
      </trkpt>
      <trkpt lat="44.66467" lon="5.83167">
        <ele>1787.4000244141</ele>
        <time>2021-08-11T11:56:37Z</time>
      </trkpt>
      <trkpt lat="44.6647" lon="5.83189">
        <ele>1784.4000244141</ele>
        <time>2021-08-11T11:56:56Z</time>
      </trkpt>
      <trkpt lat="44.66472" lon="5.83199">
        <ele>1783</ele>
        <time>2021-08-11T11:57:02Z</time>
      </trkpt>
      <trkpt lat="44.66483" lon="5.83203">
        <ele>1782.1999511719</ele>
        <time>2021-08-11T11:57:22Z</time>
      </trkpt>
      <trkpt lat="44.6649" lon="5.83211">
        <ele>1780.1999511719</ele>
        <time>2021-08-11T11:57:45Z</time>
      </trkpt>
      <trkpt lat="44.66497" lon="5.83219">
        <ele>1777</ele>
        <time>2021-08-11T11:58:02Z</time>
      </trkpt>
      <trkpt lat="44.66495" lon="5.83227">
        <ele>1775.8000488281</ele>
        <time>2021-08-11T11:58:09Z</time>
      </trkpt>
      <trkpt lat="44.66508" lon="5.83242">
        <ele>1772.4000244141</ele>
        <time>2021-08-11T11:58:29Z</time>
      </trkpt>
      <trkpt lat="44.66517" lon="5.83247">
        <ele>1770.5999755859</ele>
        <time>2021-08-11T11:58:50Z</time>
      </trkpt>
      <trkpt lat="44.66528" lon="5.83258">
        <ele>1767.4000244141</ele>
        <time>2021-08-11T11:59:08Z</time>
      </trkpt>
      <trkpt lat="44.66541" lon="5.83271">
        <ele>1764.5999755859</ele>
        <time>2021-08-11T11:59:29Z</time>
      </trkpt>
      <trkpt lat="44.66548" lon="5.83281">
        <ele>1761.5999755859</ele>
        <time>2021-08-11T11:59:48Z</time>
      </trkpt>
      <trkpt lat="44.66542" lon="5.83288">
        <ele>1759.1999511719</ele>
        <time>2021-08-11T12:00:06Z</time>
      </trkpt>
      <trkpt lat="44.66529" lon="5.83296">
        <ele>1757.1999511719</ele>
        <time>2021-08-11T12:00:27Z</time>
      </trkpt>
      <trkpt lat="44.66527" lon="5.83298">
        <ele>1757</ele>
        <time>2021-08-11T12:00:29Z</time>
      </trkpt>
      <trkpt lat="44.66522" lon="5.83306">
        <ele>1755.1999511719</ele>
        <time>2021-08-11T12:00:40Z</time>
      </trkpt>
      <trkpt lat="44.66525" lon="5.83325">
        <ele>1753.1999511719</ele>
        <time>2021-08-11T12:00:54Z</time>
      </trkpt>
      <trkpt lat="44.66534" lon="5.83334">
        <ele>1750.5999755859</ele>
        <time>2021-08-11T12:01:18Z</time>
      </trkpt>
      <trkpt lat="44.66536" lon="5.83352">
        <ele>1748</ele>
        <time>2021-08-11T12:01:41Z</time>
      </trkpt>
      <trkpt lat="44.66538" lon="5.83368">
        <ele>1744.8000488281</ele>
        <time>2021-08-11T12:01:57Z</time>
      </trkpt>
      <trkpt lat="44.66529" lon="5.83386">
        <ele>1742.1999511719</ele>
        <time>2021-08-11T12:02:13Z</time>
      </trkpt>
      <trkpt lat="44.66529" lon="5.83403">
        <ele>1739</ele>
        <time>2021-08-11T12:02:32Z</time>
      </trkpt>
      <trkpt lat="44.6653" lon="5.83416">
        <ele>1736</ele>
        <time>2021-08-11T12:02:47Z</time>
      </trkpt>
      <trkpt lat="44.66534" lon="5.8343">
        <ele>1732.8000488281</ele>
        <time>2021-08-11T12:02:58Z</time>
      </trkpt>
      <trkpt lat="44.66535" lon="5.83431">
        <ele>1732.8000488281</ele>
        <time>2021-08-11T12:02:59Z</time>
      </trkpt>
      <trkpt lat="44.6654" lon="5.83452">
        <ele>1730.4000244141</ele>
        <time>2021-08-11T12:03:13Z</time>
      </trkpt>
      <trkpt lat="44.66545" lon="5.83467">
        <ele>1731.8000488281</ele>
        <time>2021-08-11T12:03:36Z</time>
      </trkpt>
      <trkpt lat="44.66548" lon="5.83468">
        <ele>1731.8000488281</ele>
        <time>2021-08-11T12:03:41Z</time>
      </trkpt>
      <trkpt lat="44.6656" lon="5.83476">
        <ele>1728.5999755859</ele>
        <time>2021-08-11T12:04:00Z</time>
      </trkpt>
      <trkpt lat="44.66575" lon="5.83478">
        <ele>1725.5999755859</ele>
        <time>2021-08-11T12:04:18Z</time>
      </trkpt>
      <trkpt lat="44.66587" lon="5.83477">
        <ele>1723</ele>
        <time>2021-08-11T12:04:36Z</time>
      </trkpt>
      <trkpt lat="44.66594" lon="5.83482">
        <ele>1719.8000488281</ele>
        <time>2021-08-11T12:04:49Z</time>
      </trkpt>
      <trkpt lat="44.66599" lon="5.83496">
        <ele>1716.5999755859</ele>
        <time>2021-08-11T12:05:02Z</time>
      </trkpt>
      <trkpt lat="44.66593" lon="5.83506">
        <ele>1713.5999755859</ele>
        <time>2021-08-11T12:05:16Z</time>
      </trkpt>
      <trkpt lat="44.66595" lon="5.83526">
        <ele>1710.4000244141</ele>
        <time>2021-08-11T12:05:34Z</time>
      </trkpt>
      <trkpt lat="44.66593" lon="5.83544">
        <ele>1707.4000244141</ele>
        <time>2021-08-11T12:05:55Z</time>
      </trkpt>
      <trkpt lat="44.66591" lon="5.83549">
        <ele>1706.4000244141</ele>
        <time>2021-08-11T12:06:02Z</time>
      </trkpt>
      <trkpt lat="44.66587" lon="5.83563">
        <ele>1703.1999511719</ele>
        <time>2021-08-11T12:06:17Z</time>
      </trkpt>
      <trkpt lat="44.66584" lon="5.83576">
        <ele>1701</ele>
        <time>2021-08-11T12:06:37Z</time>
      </trkpt>
      <trkpt lat="44.66575" lon="5.83598">
        <ele>1697.8000488281</ele>
        <time>2021-08-11T12:07:00Z</time>
      </trkpt>
      <trkpt lat="44.66572" lon="5.83614">
        <ele>1694.8000488281</ele>
        <time>2021-08-11T12:07:17Z</time>
      </trkpt>
      <trkpt lat="44.66564" lon="5.83632">
        <ele>1691.8000488281</ele>
        <time>2021-08-11T12:07:36Z</time>
      </trkpt>
      <trkpt lat="44.66564" lon="5.83634">
        <ele>1690.1999511719</ele>
        <time>2021-08-11T12:07:43Z</time>
      </trkpt>
      <trkpt lat="44.66577" lon="5.83629">
        <ele>1687</ele>
        <time>2021-08-11T12:08:02Z</time>
      </trkpt>
      <trkpt lat="44.66587" lon="5.83623">
        <ele>1684</ele>
        <time>2021-08-11T12:08:17Z</time>
      </trkpt>
      <trkpt lat="44.66596" lon="5.83619">
        <ele>1682.1999511719</ele>
        <time>2021-08-11T12:08:37Z</time>
      </trkpt>
      <trkpt lat="44.66597" lon="5.83624">
        <ele>1681.8000488281</ele>
        <time>2021-08-11T12:09:14Z</time>
      </trkpt>
      <trkpt lat="44.666" lon="5.83617">
        <ele>1681.8000488281</ele>
        <time>2021-08-11T12:10:01Z</time>
      </trkpt>
      <trkpt lat="44.66602" lon="5.83621">
        <ele>1680.4000244141</ele>
        <time>2021-08-11T12:10:28Z</time>
      </trkpt>
      <trkpt lat="44.66605" lon="5.83608">
        <ele>1681.5999755859</ele>
        <time>2021-08-11T12:10:49Z</time>
      </trkpt>
      <trkpt lat="44.66604" lon="5.8362">
        <ele>1681</ele>
        <time>2021-08-11T12:11:22Z</time>
      </trkpt>
      <trkpt lat="44.66598" lon="5.83643">
        <ele>1678.1999511719</ele>
        <time>2021-08-11T12:11:48Z</time>
      </trkpt>
      <trkpt lat="44.6659" lon="5.83663">
        <ele>1675.1999511719</ele>
        <time>2021-08-11T12:12:10Z</time>
      </trkpt>
      <trkpt lat="44.66581" lon="5.83674">
        <ele>1672.8000488281</ele>
        <time>2021-08-11T12:12:29Z</time>
      </trkpt>
      <trkpt lat="44.6657" lon="5.8369">
        <ele>1671.4000244141</ele>
        <time>2021-08-11T12:12:51Z</time>
      </trkpt>
      <trkpt lat="44.66565" lon="5.83715">
        <ele>1668.8000488281</ele>
        <time>2021-08-11T12:13:13Z</time>
      </trkpt>
      <trkpt lat="44.66562" lon="5.83735">
        <ele>1667.4000244141</ele>
        <time>2021-08-11T12:13:39Z</time>
      </trkpt>
      <trkpt lat="44.66557" lon="5.83746">
        <ele>1664.1999511719</ele>
        <time>2021-08-11T12:14:03Z</time>
      </trkpt>
      <trkpt lat="44.66553" lon="5.83767">
        <ele>1661.1999511719</ele>
        <time>2021-08-11T12:14:22Z</time>
      </trkpt>
      <trkpt lat="44.66553" lon="5.83793">
        <ele>1658.4000244141</ele>
        <time>2021-08-11T12:14:49Z</time>
      </trkpt>
      <trkpt lat="44.66553" lon="5.83811">
        <ele>1656.4000244141</ele>
        <time>2021-08-11T12:15:08Z</time>
      </trkpt>
      <trkpt lat="44.66556" lon="5.83823">
        <ele>1655</ele>
        <time>2021-08-11T12:15:28Z</time>
      </trkpt>
      <trkpt lat="44.66555" lon="5.83828">
        <ele>1655</ele>
        <time>2021-08-11T12:15:32Z</time>
      </trkpt>
      <trkpt lat="44.66558" lon="5.83856">
        <ele>1654.1999511719</ele>
        <time>2021-08-11T12:15:55Z</time>
      </trkpt>
      <trkpt lat="44.66571" lon="5.83868">
        <ele>1652.1999511719</ele>
        <time>2021-08-11T12:16:12Z</time>
      </trkpt>
      <trkpt lat="44.66589" lon="5.83873">
        <ele>1649.5999755859</ele>
        <time>2021-08-11T12:16:31Z</time>
      </trkpt>
      <trkpt lat="44.66599" lon="5.83883">
        <ele>1649.1999511719</ele>
        <time>2021-08-11T12:16:49Z</time>
      </trkpt>
      <trkpt lat="44.66611" lon="5.83907">
        <ele>1647</ele>
        <time>2021-08-11T12:17:13Z</time>
      </trkpt>
      <trkpt lat="44.66623" lon="5.83921">
        <ele>1645.5999755859</ele>
        <time>2021-08-11T12:17:31Z</time>
      </trkpt>
      <trkpt lat="44.66635" lon="5.83933">
        <ele>1643</ele>
        <time>2021-08-11T12:17:49Z</time>
      </trkpt>
      <trkpt lat="44.66641" lon="5.83938">
        <ele>1641.8000488281</ele>
        <time>2021-08-11T12:17:57Z</time>
      </trkpt>
      <trkpt lat="44.66655" lon="5.8394">
        <ele>1638.8000488281</ele>
        <time>2021-08-11T12:18:17Z</time>
      </trkpt>
      <trkpt lat="44.66658" lon="5.83939">
        <ele>1637.8000488281</ele>
        <time>2021-08-11T12:18:31Z</time>
      </trkpt>
      <trkpt lat="44.66661" lon="5.83955">
        <ele>1636.1999511719</ele>
        <time>2021-08-11T12:18:49Z</time>
      </trkpt>
      <trkpt lat="44.66675" lon="5.83965">
        <ele>1633.1999511719</ele>
        <time>2021-08-11T12:19:09Z</time>
      </trkpt>
      <trkpt lat="44.66682" lon="5.83976">
        <ele>1630</ele>
        <time>2021-08-11T12:19:28Z</time>
      </trkpt>
      <trkpt lat="44.66686" lon="5.83987">
        <ele>1627.5999755859</ele>
        <time>2021-08-11T12:19:46Z</time>
      </trkpt>
      <trkpt lat="44.66675" lon="5.84004">
        <ele>1624.8000488281</ele>
        <time>2021-08-11T12:20:06Z</time>
      </trkpt>
      <trkpt lat="44.6667" lon="5.84014">
        <ele>1621.5999755859</ele>
        <time>2021-08-11T12:20:24Z</time>
      </trkpt>
      <trkpt lat="44.66655" lon="5.84022">
        <ele>1618.5999755859</ele>
        <time>2021-08-11T12:20:49Z</time>
      </trkpt>
      <trkpt lat="44.66637" lon="5.84017">
        <ele>1615.4000244141</ele>
        <time>2021-08-11T12:21:10Z</time>
      </trkpt>
      <trkpt lat="44.66634" lon="5.84031">
        <ele>1612.8000488281</ele>
        <time>2021-08-11T12:21:28Z</time>
      </trkpt>
      <trkpt lat="44.66635" lon="5.84043">
        <ele>1609.8000488281</ele>
        <time>2021-08-11T12:21:45Z</time>
      </trkpt>
      <trkpt lat="44.66641" lon="5.8406">
        <ele>1606.5999755859</ele>
        <time>2021-08-11T12:22:02Z</time>
      </trkpt>
      <trkpt lat="44.66643" lon="5.84079">
        <ele>1603.4000244141</ele>
        <time>2021-08-11T12:22:24Z</time>
      </trkpt>
      <trkpt lat="44.66646" lon="5.84099">
        <ele>1600.1999511719</ele>
        <time>2021-08-11T12:22:42Z</time>
      </trkpt>
      <trkpt lat="44.66651" lon="5.84119">
        <ele>1597.1999511719</ele>
        <time>2021-08-11T12:23:00Z</time>
      </trkpt>
      <trkpt lat="44.66654" lon="5.84123">
        <ele>1595.4000244141</ele>
        <time>2021-08-11T12:23:19Z</time>
      </trkpt>
      <trkpt lat="44.66655" lon="5.8414">
        <ele>1594.1999511719</ele>
        <time>2021-08-11T12:23:38Z</time>
      </trkpt>
      <trkpt lat="44.66662" lon="5.84151">
        <ele>1592.4000244141</ele>
        <time>2021-08-11T12:23:49Z</time>
      </trkpt>
      <trkpt lat="44.66674" lon="5.84172">
        <ele>1589.4000244141</ele>
        <time>2021-08-11T12:24:08Z</time>
      </trkpt>
      <trkpt lat="44.66678" lon="5.84179">
        <ele>1588.5999755859</ele>
        <time>2021-08-11T12:24:14Z</time>
      </trkpt>
      <trkpt lat="44.6669" lon="5.84195">
        <ele>1587.1999511719</ele>
        <time>2021-08-11T12:24:28Z</time>
      </trkpt>
      <trkpt lat="44.66695" lon="5.84203">
        <ele>1586</ele>
        <time>2021-08-11T12:24:35Z</time>
      </trkpt>
      <trkpt lat="44.66703" lon="5.84204">
        <ele>1584.8000488281</ele>
        <time>2021-08-11T12:24:46Z</time>
      </trkpt>
      <trkpt lat="44.66705" lon="5.84205">
        <ele>1584.5999755859</ele>
        <time>2021-08-11T12:24:48Z</time>
      </trkpt>
      <trkpt lat="44.66723" lon="5.84216">
        <ele>1582.8000488281</ele>
        <time>2021-08-11T12:25:08Z</time>
      </trkpt>
      <trkpt lat="44.66729" lon="5.84225">
        <ele>1580</ele>
        <time>2021-08-11T12:25:29Z</time>
      </trkpt>
      <trkpt lat="44.66733" lon="5.84231">
        <ele>1579.8000488281</ele>
        <time>2021-08-11T12:26:07Z</time>
      </trkpt>
      <trkpt lat="44.66741" lon="5.8424">
        <ele>1576.5999755859</ele>
        <time>2021-08-11T12:26:23Z</time>
      </trkpt>
      <trkpt lat="44.6675" lon="5.8425">
        <ele>1573.5999755859</ele>
        <time>2021-08-11T12:26:36Z</time>
      </trkpt>
      <trkpt lat="44.66762" lon="5.84257">
        <ele>1570.5999755859</ele>
        <time>2021-08-11T12:26:56Z</time>
      </trkpt>
      <trkpt lat="44.66766" lon="5.84261">
        <ele>1569.4000244141</ele>
        <time>2021-08-11T12:27:08Z</time>
      </trkpt>
      <trkpt lat="44.66768" lon="5.84267">
        <ele>1569.1999511719</ele>
        <time>2021-08-11T12:27:12Z</time>
      </trkpt>
      <trkpt lat="44.66772" lon="5.84288">
        <ele>1568.1999511719</ele>
        <time>2021-08-11T12:27:29Z</time>
      </trkpt>
      <trkpt lat="44.66775" lon="5.84311">
        <ele>1566.5999755859</ele>
        <time>2021-08-11T12:27:46Z</time>
      </trkpt>
      <trkpt lat="44.66782" lon="5.84337">
        <ele>1564.4000244141</ele>
        <time>2021-08-11T12:28:06Z</time>
      </trkpt>
      <trkpt lat="44.66787" lon="5.84348">
        <ele>1563.5999755859</ele>
        <time>2021-08-11T12:28:17Z</time>
      </trkpt>
      <trkpt lat="44.668" lon="5.84351">
        <ele>1562.5999755859</ele>
        <time>2021-08-11T12:28:32Z</time>
      </trkpt>
      <trkpt lat="44.66809" lon="5.84353">
        <ele>1561.4000244141</ele>
        <time>2021-08-11T12:28:41Z</time>
      </trkpt>
      <trkpt lat="44.66826" lon="5.84356">
        <ele>1559.4000244141</ele>
        <time>2021-08-11T12:28:58Z</time>
      </trkpt>
      <trkpt lat="44.66838" lon="5.8436">
        <ele>1557.4000244141</ele>
        <time>2021-08-11T12:29:12Z</time>
      </trkpt>
      <trkpt lat="44.66846" lon="5.84361">
        <ele>1556.8000488281</ele>
        <time>2021-08-11T12:29:19Z</time>
      </trkpt>
      <trkpt lat="44.6686" lon="5.84372">
        <ele>1553.5999755859</ele>
        <time>2021-08-11T12:29:36Z</time>
      </trkpt>
      <trkpt lat="44.66874" lon="5.84376">
        <ele>1550.8000488281</ele>
        <time>2021-08-11T12:29:53Z</time>
      </trkpt>
      <trkpt lat="44.66875" lon="5.84376">
        <ele>1550.8000488281</ele>
        <time>2021-08-11T12:29:54Z</time>
      </trkpt>
      <trkpt lat="44.66889" lon="5.8438">
        <ele>1548.4000244141</ele>
        <time>2021-08-11T12:30:10Z</time>
      </trkpt>
      <trkpt lat="44.66897" lon="5.8438">
        <ele>1547.4000244141</ele>
        <time>2021-08-11T12:30:18Z</time>
      </trkpt>
      <trkpt lat="44.66905" lon="5.84384">
        <ele>1546.4000244141</ele>
        <time>2021-08-11T12:30:25Z</time>
      </trkpt>
      <trkpt lat="44.66923" lon="5.84385">
        <ele>1544.1999511719</ele>
        <time>2021-08-11T12:30:43Z</time>
      </trkpt>
      <trkpt lat="44.66934" lon="5.84379">
        <ele>1541.8000488281</ele>
        <time>2021-08-11T12:31:01Z</time>
      </trkpt>
      <trkpt lat="44.66945" lon="5.8438">
        <ele>1539</ele>
        <time>2021-08-11T12:31:17Z</time>
      </trkpt>
      <trkpt lat="44.66961" lon="5.84381">
        <ele>1536</ele>
        <time>2021-08-11T12:31:32Z</time>
      </trkpt>
      <trkpt lat="44.66974" lon="5.84383">
        <ele>1534.4000244141</ele>
        <time>2021-08-11T12:31:47Z</time>
      </trkpt>
      <trkpt lat="44.66985" lon="5.84389">
        <ele>1532.1999511719</ele>
        <time>2021-08-11T12:32:04Z</time>
      </trkpt>
      <trkpt lat="44.66993" lon="5.84404">
        <ele>1528.8000488281</ele>
        <time>2021-08-11T12:32:20Z</time>
      </trkpt>
      <trkpt lat="44.6699" lon="5.84417">
        <ele>1526.4000244141</ele>
        <time>2021-08-11T12:32:30Z</time>
      </trkpt>
      <trkpt lat="44.66986" lon="5.8444">
        <ele>1523</ele>
        <time>2021-08-11T12:32:46Z</time>
      </trkpt>
      <trkpt lat="44.66975" lon="5.84458">
        <ele>1519.8000488281</ele>
        <time>2021-08-11T12:33:04Z</time>
      </trkpt>
      <trkpt lat="44.66974" lon="5.84477">
        <ele>1518</ele>
        <time>2021-08-11T12:33:16Z</time>
      </trkpt>
      <trkpt lat="44.66966" lon="5.84496">
        <ele>1514.5999755859</ele>
        <time>2021-08-11T12:33:34Z</time>
      </trkpt>
      <trkpt lat="44.66959" lon="5.84516">
        <ele>1511.5999755859</ele>
        <time>2021-08-11T12:33:54Z</time>
      </trkpt>
      <trkpt lat="44.66958" lon="5.84529">
        <ele>1509.8000488281</ele>
        <time>2021-08-11T12:34:15Z</time>
      </trkpt>
      <trkpt lat="44.66955" lon="5.84551">
        <ele>1506.8000488281</ele>
        <time>2021-08-11T12:34:35Z</time>
      </trkpt>
      <trkpt lat="44.66954" lon="5.84563">
        <ele>1503.8000488281</ele>
        <time>2021-08-11T12:34:54Z</time>
      </trkpt>
      <trkpt lat="44.66949" lon="5.84582">
        <ele>1500.8000488281</ele>
        <time>2021-08-11T12:35:15Z</time>
      </trkpt>
      <trkpt lat="44.66948" lon="5.84585">
        <ele>1499.8000488281</ele>
        <time>2021-08-11T12:35:36Z</time>
      </trkpt>
      <trkpt lat="44.6696" lon="5.84579">
        <ele>1499.1999511719</ele>
        <time>2021-08-11T12:36:00Z</time>
      </trkpt>
      <trkpt lat="44.66961" lon="5.84571">
        <ele>1500</ele>
        <time>2021-08-11T12:36:23Z</time>
      </trkpt>
      <trkpt lat="44.6696" lon="5.84565">
        <ele>1500.4000244141</ele>
        <time>2021-08-11T12:36:50Z</time>
      </trkpt>
      <trkpt lat="44.66963" lon="5.84573">
        <ele>1500.4000244141</ele>
        <time>2021-08-11T12:37:30Z</time>
      </trkpt>
      <trkpt lat="44.66963" lon="5.84573">
        <ele>1500.4000244141</ele>
        <time>2021-08-11T12:38:19Z</time>
      </trkpt>
      <trkpt lat="44.66956" lon="5.8458">
        <ele>1500</ele>
        <time>2021-08-11T12:38:58Z</time>
      </trkpt>
      <trkpt lat="44.66949" lon="5.84577">
        <ele>1500.4000244141</ele>
        <time>2021-08-11T12:39:23Z</time>
      </trkpt>
      <trkpt lat="44.66947" lon="5.84579">
        <ele>1500.1999511719</ele>
        <time>2021-08-11T12:39:47Z</time>
      </trkpt>
      <trkpt lat="44.66944" lon="5.84586">
        <ele>1499.5999755859</ele>
        <time>2021-08-11T12:40:16Z</time>
      </trkpt>
      <trkpt lat="44.66934" lon="5.84599">
        <ele>1497.8000488281</ele>
        <time>2021-08-11T12:40:35Z</time>
      </trkpt>
      <trkpt lat="44.66933" lon="5.84599">
        <ele>1497</ele>
        <time>2021-08-11T12:41:02Z</time>
      </trkpt>
      <trkpt lat="44.66939" lon="5.84598">
        <ele>1497</ele>
        <time>2021-08-11T12:41:29Z</time>
      </trkpt>
      <trkpt lat="44.66939" lon="5.846">
        <ele>1497</ele>
        <time>2021-08-11T12:42:13Z</time>
      </trkpt>
      <trkpt lat="44.66937" lon="5.846">
        <ele>1497</ele>
        <time>2021-08-11T12:43:12Z</time>
      </trkpt>
      <trkpt lat="44.66931" lon="5.8461">
        <ele>1496</ele>
        <time>2021-08-11T12:43:28Z</time>
      </trkpt>
      <trkpt lat="44.66918" lon="5.8463">
        <ele>1494.1999511719</ele>
        <time>2021-08-11T12:43:47Z</time>
      </trkpt>
      <trkpt lat="44.66909" lon="5.84651">
        <ele>1494.4000244141</ele>
        <time>2021-08-11T12:44:06Z</time>
      </trkpt>
      <trkpt lat="44.66908" lon="5.84667">
        <ele>1494</ele>
        <time>2021-08-11T12:44:19Z</time>
      </trkpt>
      <trkpt lat="44.66905" lon="5.84688">
        <ele>1493.1999511719</ele>
        <time>2021-08-11T12:44:37Z</time>
      </trkpt>
      <trkpt lat="44.66902" lon="5.84704">
        <ele>1492.8000488281</ele>
        <time>2021-08-11T12:44:57Z</time>
      </trkpt>
      <trkpt lat="44.669" lon="5.84722">
        <ele>1492</ele>
        <time>2021-08-11T12:45:17Z</time>
      </trkpt>
      <trkpt lat="44.669" lon="5.84741">
        <ele>1491</ele>
        <time>2021-08-11T12:45:39Z</time>
      </trkpt>
      <trkpt lat="44.66897" lon="5.84763">
        <ele>1490</ele>
        <time>2021-08-11T12:46:03Z</time>
      </trkpt>
      <trkpt lat="44.66895" lon="5.84785">
        <ele>1488</ele>
        <time>2021-08-11T12:46:19Z</time>
      </trkpt>
      <trkpt lat="44.66886" lon="5.84808">
        <ele>1485.5999755859</ele>
        <time>2021-08-11T12:46:42Z</time>
      </trkpt>
      <trkpt lat="44.66885" lon="5.84824">
        <ele>1484.4000244141</ele>
        <time>2021-08-11T12:46:55Z</time>
      </trkpt>
      <trkpt lat="44.66885" lon="5.84832">
        <ele>1483.8000488281</ele>
        <time>2021-08-11T12:47:03Z</time>
      </trkpt>
      <trkpt lat="44.66879" lon="5.8485">
        <ele>1481.4000244141</ele>
        <time>2021-08-11T12:47:22Z</time>
      </trkpt>
      <trkpt lat="44.66877" lon="5.84853">
        <ele>1481</ele>
        <time>2021-08-11T12:47:25Z</time>
      </trkpt>
      <trkpt lat="44.66873" lon="5.84864">
        <ele>1480.1999511719</ele>
        <time>2021-08-11T12:47:34Z</time>
      </trkpt>
      <trkpt lat="44.66872" lon="5.84887">
        <ele>1479.1999511719</ele>
        <time>2021-08-11T12:47:51Z</time>
      </trkpt>
      <trkpt lat="44.66868" lon="5.84914">
        <ele>1479</ele>
        <time>2021-08-11T12:48:11Z</time>
      </trkpt>
      <trkpt lat="44.66866" lon="5.84931">
        <ele>1478.5999755859</ele>
        <time>2021-08-11T12:48:26Z</time>
      </trkpt>
      <trkpt lat="44.66865" lon="5.84934">
        <ele>1478.5999755859</ele>
        <time>2021-08-11T12:48:29Z</time>
      </trkpt>
      <trkpt lat="44.66862" lon="5.84957">
        <ele>1477.8000488281</ele>
        <time>2021-08-11T12:48:47Z</time>
      </trkpt>
      <trkpt lat="44.66862" lon="5.84966">
        <ele>1477.4000244141</ele>
        <time>2021-08-11T12:48:54Z</time>
      </trkpt>
      <trkpt lat="44.66862" lon="5.84985">
        <ele>1475.5999755859</ele>
        <time>2021-08-11T12:49:13Z</time>
      </trkpt>
      <trkpt lat="44.66861" lon="5.85004">
        <ele>1474</ele>
        <time>2021-08-11T12:49:34Z</time>
      </trkpt>
      <trkpt lat="44.66856" lon="5.85021">
        <ele>1472.4000244141</ele>
        <time>2021-08-11T12:49:52Z</time>
      </trkpt>
      <trkpt lat="44.66847" lon="5.85034">
        <ele>1470.5999755859</ele>
        <time>2021-08-11T12:50:09Z</time>
      </trkpt>
      <trkpt lat="44.66847" lon="5.85032">
        <ele>1470.1999511719</ele>
        <time>2021-08-11T12:50:38Z</time>
      </trkpt>
      <trkpt lat="44.66849" lon="5.85028">
        <ele>1470.1999511719</ele>
        <time>2021-08-11T12:51:13Z</time>
      </trkpt>
      <trkpt lat="44.66855" lon="5.8503">
        <ele>1470.4000244141</ele>
        <time>2021-08-11T12:51:37Z</time>
      </trkpt>
      <trkpt lat="44.66853" lon="5.85038">
        <ele>1470.1999511719</ele>
        <time>2021-08-11T12:52:07Z</time>
      </trkpt>
      <trkpt lat="44.66846" lon="5.85062">
        <ele>1469.1999511719</ele>
        <time>2021-08-11T12:52:33Z</time>
      </trkpt>
      <trkpt lat="44.66834" lon="5.85089">
        <ele>1467.5999755859</ele>
        <time>2021-08-11T12:52:59Z</time>
      </trkpt>
      <trkpt lat="44.66823" lon="5.85107">
        <ele>1466.4000244141</ele>
        <time>2021-08-11T12:53:19Z</time>
      </trkpt>
      <trkpt lat="44.6682" lon="5.85112">
        <ele>1466.1999511719</ele>
        <time>2021-08-11T12:53:24Z</time>
      </trkpt>
      <trkpt lat="44.66811" lon="5.85123">
        <ele>1465</ele>
        <time>2021-08-11T12:53:40Z</time>
      </trkpt>
      <trkpt lat="44.668" lon="5.85139">
        <ele>1463</ele>
        <time>2021-08-11T12:54:03Z</time>
      </trkpt>
      <trkpt lat="44.66789" lon="5.85152">
        <ele>1461.1999511719</ele>
        <time>2021-08-11T12:54:19Z</time>
      </trkpt>
      <trkpt lat="44.66775" lon="5.85168">
        <ele>1459</ele>
        <time>2021-08-11T12:54:43Z</time>
      </trkpt>
      <trkpt lat="44.6676" lon="5.85193">
        <ele>1456.8000488281</ele>
        <time>2021-08-11T12:55:07Z</time>
      </trkpt>
      <trkpt lat="44.66748" lon="5.85215">
        <ele>1455</ele>
        <time>2021-08-11T12:55:30Z</time>
      </trkpt>
      <trkpt lat="44.66735" lon="5.85244">
        <ele>1453.1999511719</ele>
        <time>2021-08-11T12:55:56Z</time>
      </trkpt>
      <trkpt lat="44.66729" lon="5.85252">
        <ele>1452.5999755859</ele>
        <time>2021-08-11T12:56:07Z</time>
      </trkpt>
      <trkpt lat="44.66721" lon="5.85286">
        <ele>1450.5999755859</ele>
        <time>2021-08-11T12:56:31Z</time>
      </trkpt>
      <trkpt lat="44.66715" lon="5.85315">
        <ele>1448.5999755859</ele>
        <time>2021-08-11T12:56:56Z</time>
      </trkpt>
      <trkpt lat="44.66712" lon="5.8533">
        <ele>1446.4000244141</ele>
        <time>2021-08-11T12:57:17Z</time>
      </trkpt>
      <trkpt lat="44.6671" lon="5.8535">
        <ele>1445.4000244141</ele>
        <time>2021-08-11T12:57:40Z</time>
      </trkpt>
      <trkpt lat="44.66708" lon="5.85372">
        <ele>1443.8000488281</ele>
        <time>2021-08-11T12:57:59Z</time>
      </trkpt>
      <trkpt lat="44.66705" lon="5.85397">
        <ele>1442.5999755859</ele>
        <time>2021-08-11T12:58:23Z</time>
      </trkpt>
      <trkpt lat="44.66703" lon="5.8542">
        <ele>1441.5999755859</ele>
        <time>2021-08-11T12:58:39Z</time>
      </trkpt>
      <trkpt lat="44.66702" lon="5.85439">
        <ele>1441.1999511719</ele>
        <time>2021-08-11T12:58:54Z</time>
      </trkpt>
      <trkpt lat="44.66699" lon="5.85444">
        <ele>1440</ele>
        <time>2021-08-11T12:59:13Z</time>
      </trkpt>
      <trkpt lat="44.66697" lon="5.85449">
        <ele>1440</ele>
        <time>2021-08-11T12:59:31Z</time>
      </trkpt>
      <trkpt lat="44.66693" lon="5.85446">
        <ele>1439</ele>
        <time>2021-08-11T13:00:06Z</time>
      </trkpt>
      <trkpt lat="44.66696" lon="5.85445">
        <ele>1438.4000244141</ele>
        <time>2021-08-11T13:00:27Z</time>
      </trkpt>
      <trkpt lat="44.66696" lon="5.85444">
        <ele>1438.5999755859</ele>
        <time>2021-08-11T13:01:07Z</time>
      </trkpt>
      <trkpt lat="44.66696" lon="5.85442">
        <ele>1438.8000488281</ele>
        <time>2021-08-11T13:01:39Z</time>
      </trkpt>
      <trkpt lat="44.66696" lon="5.85444">
        <ele>1438.8000488281</ele>
        <time>2021-08-11T13:02:12Z</time>
      </trkpt>
      <trkpt lat="44.66696" lon="5.85445">
        <ele>1438.8000488281</ele>
        <time>2021-08-11T13:02:56Z</time>
      </trkpt>
      <trkpt lat="44.66695" lon="5.85444">
        <ele>1438.8000488281</ele>
        <time>2021-08-11T13:03:33Z</time>
      </trkpt>
      <trkpt lat="44.66695" lon="5.85445">
        <ele>1438.8000488281</ele>
        <time>2021-08-11T13:04:06Z</time>
      </trkpt>
      <trkpt lat="44.66698" lon="5.85447">
        <ele>1439.4000244141</ele>
        <time>2021-08-11T13:04:26Z</time>
      </trkpt>
      <trkpt lat="44.66698" lon="5.85446">
        <ele>1440.8000488281</ele>
        <time>2021-08-11T13:04:56Z</time>
      </trkpt>
      <trkpt lat="44.66699" lon="5.85449">
        <ele>1440.8000488281</ele>
        <time>2021-08-11T13:05:08Z</time>
      </trkpt>
      <trkpt lat="44.66699" lon="5.85471">
        <ele>1440.5999755859</ele>
        <time>2021-08-11T13:05:25Z</time>
      </trkpt>
      <trkpt lat="44.66698" lon="5.85472">
        <ele>1440.5999755859</ele>
        <time>2021-08-11T13:05:26Z</time>
      </trkpt>
      <trkpt lat="44.66696" lon="5.85499">
        <ele>1439.8000488281</ele>
        <time>2021-08-11T13:05:45Z</time>
      </trkpt>
      <trkpt lat="44.66694" lon="5.85522">
        <ele>1439.4000244141</ele>
        <time>2021-08-11T13:06:02Z</time>
      </trkpt>
      <trkpt lat="44.66691" lon="5.85532">
        <ele>1439</ele>
        <time>2021-08-11T13:06:11Z</time>
      </trkpt>
      <trkpt lat="44.66685" lon="5.85546">
        <ele>1437.8000488281</ele>
        <time>2021-08-11T13:06:26Z</time>
      </trkpt>
      <trkpt lat="44.66677" lon="5.85565">
        <ele>1436</ele>
        <time>2021-08-11T13:06:48Z</time>
      </trkpt>
      <trkpt lat="44.6667" lon="5.85591">
        <ele>1434.5999755859</ele>
        <time>2021-08-11T13:07:10Z</time>
      </trkpt>
      <trkpt lat="44.66674" lon="5.85608">
        <ele>1433.1999511719</ele>
        <time>2021-08-11T13:07:24Z</time>
      </trkpt>
      <trkpt lat="44.66681" lon="5.85621">
        <ele>1432</ele>
        <time>2021-08-11T13:07:35Z</time>
      </trkpt>
      <trkpt lat="44.66689" lon="5.85635">
        <ele>1431</ele>
        <time>2021-08-11T13:07:48Z</time>
      </trkpt>
      <trkpt lat="44.66698" lon="5.85656">
        <ele>1429.8000488281</ele>
        <time>2021-08-11T13:08:05Z</time>
      </trkpt>
      <trkpt lat="44.66702" lon="5.85665">
        <ele>1429.4000244141</ele>
        <time>2021-08-11T13:08:13Z</time>
      </trkpt>
      <trkpt lat="44.66706" lon="5.8569">
        <ele>1428.4000244141</ele>
        <time>2021-08-11T13:08:32Z</time>
      </trkpt>
      <trkpt lat="44.6671" lon="5.85711">
        <ele>1427.4000244141</ele>
        <time>2021-08-11T13:08:48Z</time>
      </trkpt>
      <trkpt lat="44.66715" lon="5.85733">
        <ele>1426.5999755859</ele>
        <time>2021-08-11T13:09:04Z</time>
      </trkpt>
      <trkpt lat="44.66718" lon="5.85749">
        <ele>1426</ele>
        <time>2021-08-11T13:09:16Z</time>
      </trkpt>
      <trkpt lat="44.66722" lon="5.85768">
        <ele>1425.5999755859</ele>
        <time>2021-08-11T13:09:30Z</time>
      </trkpt>
      <trkpt lat="44.66727" lon="5.85783">
        <ele>1425.1999511719</ele>
        <time>2021-08-11T13:09:50Z</time>
      </trkpt>
      <trkpt lat="44.66738" lon="5.85794">
        <ele>1425.1999511719</ele>
        <time>2021-08-11T13:10:18Z</time>
      </trkpt>
      <trkpt lat="44.66754" lon="5.858">
        <ele>1424.5999755859</ele>
        <time>2021-08-11T13:10:36Z</time>
      </trkpt>
      <trkpt lat="44.66767" lon="5.85808">
        <ele>1424</ele>
        <time>2021-08-11T13:10:54Z</time>
      </trkpt>
      <trkpt lat="44.66769" lon="5.85807">
        <ele>1424</ele>
        <time>2021-08-11T13:10:56Z</time>
      </trkpt>
      <trkpt lat="44.66773" lon="5.858">
        <ele>1423.4000244141</ele>
        <time>2021-08-11T13:11:13Z</time>
      </trkpt>
      <trkpt lat="44.6677" lon="5.85806">
        <ele>1423.5999755859</ele>
        <time>2021-08-11T13:11:30Z</time>
      </trkpt>
      <trkpt lat="44.66767" lon="5.85804">
        <ele>1423.5999755859</ele>
        <time>2021-08-11T13:11:51Z</time>
      </trkpt>
      <trkpt lat="44.66768" lon="5.85796">
        <ele>1423.8000488281</ele>
        <time>2021-08-11T13:12:16Z</time>
      </trkpt>
      <trkpt lat="44.66769" lon="5.85801">
        <ele>1423.1999511719</ele>
        <time>2021-08-11T13:12:52Z</time>
      </trkpt>
      <trkpt lat="44.66773" lon="5.858">
        <ele>1423.1999511719</ele>
        <time>2021-08-11T13:13:33Z</time>
      </trkpt>
      <trkpt lat="44.66773" lon="5.85802">
        <ele>1423.1999511719</ele>
        <time>2021-08-11T13:13:54Z</time>
      </trkpt>
      <trkpt lat="44.6677" lon="5.85802">
        <ele>1422.8000488281</ele>
        <time>2021-08-11T13:14:48Z</time>
      </trkpt>
      <trkpt lat="44.66769" lon="5.85809">
        <ele>1423</ele>
        <time>2021-08-11T13:15:19Z</time>
      </trkpt>
      <trkpt lat="44.66765" lon="5.85804">
        <ele>1423.1999511719</ele>
        <time>2021-08-11T13:15:38Z</time>
      </trkpt>
      <trkpt lat="44.66766" lon="5.85801">
        <ele>1423</ele>
        <time>2021-08-11T13:16:05Z</time>
      </trkpt>
      <trkpt lat="44.66766" lon="5.85804">
        <ele>1423</ele>
        <time>2021-08-11T13:16:43Z</time>
      </trkpt>
      <trkpt lat="44.66749" lon="5.85798">
        <ele>1423.4000244141</ele>
        <time>2021-08-11T13:17:04Z</time>
      </trkpt>
      <trkpt lat="44.66747" lon="5.85797">
        <ele>1423.4000244141</ele>
        <time>2021-08-11T13:17:06Z</time>
      </trkpt>
      <trkpt lat="44.66734" lon="5.85792">
        <ele>1424.4000244141</ele>
        <time>2021-08-11T13:17:23Z</time>
      </trkpt>
      <trkpt lat="44.66717" lon="5.85789">
        <ele>1424.8000488281</ele>
        <time>2021-08-11T13:17:40Z</time>
      </trkpt>
      <trkpt lat="44.66699" lon="5.85791">
        <ele>1425</ele>
        <time>2021-08-11T13:17:59Z</time>
      </trkpt>
      <trkpt lat="44.66676" lon="5.85789">
        <ele>1425</ele>
        <time>2021-08-11T13:18:21Z</time>
      </trkpt>
      <trkpt lat="44.6666" lon="5.85783">
        <ele>1425</ele>
        <time>2021-08-11T13:18:37Z</time>
      </trkpt>
      <trkpt lat="44.66655" lon="5.8579">
        <ele>1425</ele>
        <time>2021-08-11T13:18:52Z</time>
      </trkpt>
      <trkpt lat="44.66655" lon="5.85794">
        <ele>1425</ele>
        <time>2021-08-11T13:19:00Z</time>
      </trkpt>
      <trkpt lat="44.66657" lon="5.85781">
        <ele>1425</ele>
        <time>2021-08-11T13:19:38Z</time>
      </trkpt>
      <trkpt lat="44.66644" lon="5.85771">
        <ele>1425</ele>
        <time>2021-08-11T13:20:07Z</time>
      </trkpt>
      <trkpt lat="44.66628" lon="5.85751">
        <ele>1424.8000488281</ele>
        <time>2021-08-11T13:20:36Z</time>
      </trkpt>
      <trkpt lat="44.66621" lon="5.85733">
        <ele>1425</ele>
        <time>2021-08-11T13:20:59Z</time>
      </trkpt>
      <trkpt lat="44.66618" lon="5.8573">
        <ele>1425</ele>
        <time>2021-08-11T13:21:41Z</time>
      </trkpt>
      <trkpt lat="44.66618" lon="5.85727">
        <ele>1425</ele>
        <time>2021-08-11T13:21:57Z</time>
      </trkpt>
    </trkseg>
  </trk>
</gpx>